<?xml version="1.0" encoding="UTF-8" standalone="no" ?>
<gpx xmlns="http://www.topografix.com/GPX/1/1" xmlns:xsi="http://www.w3.org/2001/XMLSchema-instance" xsi:schemaLocation="http://www.topografix.com/GPX/1/1 http://www.topografix.com/GPX/1/1/gpx.xsd" version="1.1" creator="VisuGPX - https://www.visugpx.com">
  <metadata>
    <name>vtt cd 44 vioreau gr 12ans 2ème journée</name>
    <desc><![CDATA[un peu froid au départ,du brouillard pas de vent,un groupe de jeunes vététistes motivés]]></desc>
  </metadata>
  <trk>
    <name><![CDATA[2018-10-24-10-01-45 on GPSies.com]]></name>
    <trkseg>
      <trkpt lat="47.52851" lon="-1.42184">
        <ele>37.9</ele>
        <time>2018-10-24T10:01:45Z</time>
      </trkpt>
      <trkpt lat="47.52855" lon="-1.42187">
        <ele>38.3</ele>
        <time>2018-10-24T10:01:51Z</time>
      </trkpt>
      <trkpt lat="47.52857" lon="-1.42184">
        <ele>38.3</ele>
        <time>2018-10-24T10:01:53Z</time>
      </trkpt>
      <trkpt lat="47.52856" lon="-1.42171">
        <ele>37.8</ele>
        <time>2018-10-24T10:01:57Z</time>
      </trkpt>
      <trkpt lat="47.52854" lon="-1.4214">
        <ele>-1</ele>
        <time>2018-10-24T10:02:05Z</time>
      </trkpt>
      <trkpt lat="47.52848" lon="-1.42127">
        <ele>-1</ele>
        <time>2018-10-24T10:02:09Z</time>
      </trkpt>
      <trkpt lat="47.52846" lon="-1.42125">
        <ele>-1</ele>
        <time>2018-10-24T10:02:10Z</time>
      </trkpt>
      <trkpt lat="47.52834" lon="-1.42129">
        <ele>-2</ele>
        <time>2018-10-24T10:02:14Z</time>
      </trkpt>
      <trkpt lat="47.52832" lon="-1.42132">
        <ele>-2</ele>
        <time>2018-10-24T10:02:15Z</time>
      </trkpt>
      <trkpt lat="47.52826" lon="-1.4214">
        <ele>-3</ele>
        <time>2018-10-24T10:02:19Z</time>
      </trkpt>
      <trkpt lat="47.52825" lon="-1.42142">
        <ele>-4</ele>
        <time>2018-10-24T10:02:20Z</time>
      </trkpt>
      <trkpt lat="47.52817" lon="-1.4216">
        <ele>-4</ele>
        <time>2018-10-24T10:02:27Z</time>
      </trkpt>
      <trkpt lat="47.52816" lon="-1.42164">
        <ele>-4</ele>
        <time>2018-10-24T10:02:29Z</time>
      </trkpt>
      <trkpt lat="47.52816" lon="-1.42166">
        <ele>-5</ele>
        <time>2018-10-24T10:09:03Z</time>
      </trkpt>
      <trkpt lat="47.52813" lon="-1.42162">
        <ele>-5</ele>
        <time>2018-10-24T10:09:06Z</time>
      </trkpt>
      <trkpt lat="47.52812" lon="-1.42161">
        <ele>-5</ele>
        <time>2018-10-24T10:09:07Z</time>
      </trkpt>
      <trkpt lat="47.52807" lon="-1.42154">
        <ele>-6</ele>
        <time>2018-10-24T10:09:10Z</time>
      </trkpt>
      <trkpt lat="47.52805" lon="-1.42146">
        <ele>-6</ele>
        <time>2018-10-24T10:09:12Z</time>
      </trkpt>
      <trkpt lat="47.5281" lon="-1.42131">
        <ele>-6</ele>
        <time>2018-10-24T10:09:16Z</time>
      </trkpt>
      <trkpt lat="47.52818" lon="-1.42112">
        <ele>-7</ele>
        <time>2018-10-24T10:09:23Z</time>
      </trkpt>
      <trkpt lat="47.52825" lon="-1.42094">
        <ele>-6</ele>
        <time>2018-10-24T10:09:29Z</time>
      </trkpt>
      <trkpt lat="47.52826" lon="-1.42092">
        <ele>-6</ele>
        <time>2018-10-24T10:09:30Z</time>
      </trkpt>
      <trkpt lat="47.52836" lon="-1.42083">
        <ele>-6</ele>
        <time>2018-10-24T10:09:34Z</time>
      </trkpt>
      <trkpt lat="47.52853" lon="-1.42071">
        <ele>-7</ele>
        <time>2018-10-24T10:09:40Z</time>
      </trkpt>
      <trkpt lat="47.52857" lon="-1.42056">
        <ele>-7</ele>
        <time>2018-10-24T10:09:44Z</time>
      </trkpt>
      <trkpt lat="47.52855" lon="-1.4203">
        <ele>-7</ele>
        <time>2018-10-24T10:09:51Z</time>
      </trkpt>
      <trkpt lat="47.5285" lon="-1.42021">
        <ele>-7</ele>
        <time>2018-10-24T10:09:54Z</time>
      </trkpt>
      <trkpt lat="47.52848" lon="-1.42018">
        <ele>-7</ele>
        <time>2018-10-24T10:09:55Z</time>
      </trkpt>
      <trkpt lat="47.52838" lon="-1.42011">
        <ele>-7</ele>
        <time>2018-10-24T10:10:00Z</time>
      </trkpt>
      <trkpt lat="47.52821" lon="-1.42006">
        <ele>-7</ele>
        <time>2018-10-24T10:10:06Z</time>
      </trkpt>
      <trkpt lat="47.52804" lon="-1.41996">
        <ele>-6</ele>
        <time>2018-10-24T10:10:13Z</time>
      </trkpt>
      <trkpt lat="47.52792" lon="-1.41978">
        <ele>-6</ele>
        <time>2018-10-24T10:10:20Z</time>
      </trkpt>
      <trkpt lat="47.52781" lon="-1.41959">
        <ele>-6</ele>
        <time>2018-10-24T10:10:26Z</time>
      </trkpt>
      <trkpt lat="47.52765" lon="-1.41927">
        <ele>-6</ele>
        <time>2018-10-24T10:10:35Z</time>
      </trkpt>
      <trkpt lat="47.52753" lon="-1.419">
        <ele>-6</ele>
        <time>2018-10-24T10:10:43Z</time>
      </trkpt>
      <trkpt lat="47.5274" lon="-1.4187">
        <ele>-6</ele>
        <time>2018-10-24T10:10:51Z</time>
      </trkpt>
      <trkpt lat="47.52729" lon="-1.4184">
        <ele>-6</ele>
        <time>2018-10-24T10:10:58Z</time>
      </trkpt>
      <trkpt lat="47.52721" lon="-1.41813">
        <ele>-6</ele>
        <time>2018-10-24T10:11:05Z</time>
      </trkpt>
      <trkpt lat="47.52709" lon="-1.4178">
        <ele>-6</ele>
        <time>2018-10-24T10:11:13Z</time>
      </trkpt>
      <trkpt lat="47.52699" lon="-1.41752">
        <ele>-6</ele>
        <time>2018-10-24T10:11:20Z</time>
      </trkpt>
      <trkpt lat="47.52692" lon="-1.41724">
        <ele>-7</ele>
        <time>2018-10-24T10:11:27Z</time>
      </trkpt>
      <trkpt lat="47.52686" lon="-1.41689">
        <ele>-7</ele>
        <time>2018-10-24T10:11:36Z</time>
      </trkpt>
      <trkpt lat="47.52684" lon="-1.41666">
        <ele>-7</ele>
        <time>2018-10-24T10:11:42Z</time>
      </trkpt>
      <trkpt lat="47.5269" lon="-1.41646">
        <ele>-7</ele>
        <time>2018-10-24T10:11:47Z</time>
      </trkpt>
      <trkpt lat="47.52686" lon="-1.41634">
        <ele>-6</ele>
        <time>2018-10-24T10:11:51Z</time>
      </trkpt>
      <trkpt lat="47.52678" lon="-1.41615">
        <ele>-6</ele>
        <time>2018-10-24T10:11:58Z</time>
      </trkpt>
      <trkpt lat="47.52674" lon="-1.41592">
        <ele>-6</ele>
        <time>2018-10-24T10:12:04Z</time>
      </trkpt>
      <trkpt lat="47.52678" lon="-1.41569">
        <ele>-7</ele>
        <time>2018-10-24T10:12:09Z</time>
      </trkpt>
      <trkpt lat="47.52676" lon="-1.41546">
        <ele>-7</ele>
        <time>2018-10-24T10:12:15Z</time>
      </trkpt>
      <trkpt lat="47.52675" lon="-1.41521">
        <ele>-7</ele>
        <time>2018-10-24T10:12:21Z</time>
      </trkpt>
      <trkpt lat="47.52677" lon="-1.41499">
        <ele>-7</ele>
        <time>2018-10-24T10:12:27Z</time>
      </trkpt>
      <trkpt lat="47.52678" lon="-1.4147">
        <ele>-6</ele>
        <time>2018-10-24T10:12:34Z</time>
      </trkpt>
      <trkpt lat="47.52678" lon="-1.41444">
        <ele>-6</ele>
        <time>2018-10-24T10:12:41Z</time>
      </trkpt>
      <trkpt lat="47.52683" lon="-1.41412">
        <ele>-7</ele>
        <time>2018-10-24T10:12:47Z</time>
      </trkpt>
      <trkpt lat="47.52684" lon="-1.41379">
        <ele>-7</ele>
        <time>2018-10-24T10:12:54Z</time>
      </trkpt>
      <trkpt lat="47.52687" lon="-1.41348">
        <ele>-7</ele>
        <time>2018-10-24T10:13:01Z</time>
      </trkpt>
      <trkpt lat="47.52688" lon="-1.41324">
        <ele>-7</ele>
        <time>2018-10-24T10:13:07Z</time>
      </trkpt>
      <trkpt lat="47.52685" lon="-1.41296">
        <ele>-7</ele>
        <time>2018-10-24T10:13:14Z</time>
      </trkpt>
      <trkpt lat="47.52683" lon="-1.41272">
        <ele>-7</ele>
        <time>2018-10-24T10:13:19Z</time>
      </trkpt>
      <trkpt lat="47.52691" lon="-1.41247">
        <ele>-7</ele>
        <time>2018-10-24T10:13:25Z</time>
      </trkpt>
      <trkpt lat="47.52692" lon="-1.41238">
        <ele>-7</ele>
        <time>2018-10-24T10:13:27Z</time>
      </trkpt>
      <trkpt lat="47.5269" lon="-1.41226">
        <ele>-7</ele>
        <time>2018-10-24T10:13:30Z</time>
      </trkpt>
      <trkpt lat="47.52687" lon="-1.41215">
        <ele>-7</ele>
        <time>2018-10-24T10:13:33Z</time>
      </trkpt>
      <trkpt lat="47.52685" lon="-1.41206">
        <ele>-7</ele>
        <time>2018-10-24T10:13:35Z</time>
      </trkpt>
      <trkpt lat="47.52681" lon="-1.4119">
        <ele>-7</ele>
        <time>2018-10-24T10:13:40Z</time>
      </trkpt>
      <trkpt lat="47.52679" lon="-1.41177">
        <ele>-7</ele>
        <time>2018-10-24T10:13:43Z</time>
      </trkpt>
      <trkpt lat="47.52679" lon="-1.41168">
        <ele>-7</ele>
        <time>2018-10-24T10:13:45Z</time>
      </trkpt>
      <trkpt lat="47.52671" lon="-1.41141">
        <ele>-7</ele>
        <time>2018-10-24T10:13:51Z</time>
      </trkpt>
      <trkpt lat="47.52666" lon="-1.41122">
        <ele>-7</ele>
        <time>2018-10-24T10:13:56Z</time>
      </trkpt>
      <trkpt lat="47.52654" lon="-1.41105">
        <ele>-6</ele>
        <time>2018-10-24T10:14:02Z</time>
      </trkpt>
      <trkpt lat="47.52645" lon="-1.41089">
        <ele>-7</ele>
        <time>2018-10-24T10:14:08Z</time>
      </trkpt>
      <trkpt lat="47.52637" lon="-1.41059">
        <ele>-7</ele>
        <time>2018-10-24T10:14:15Z</time>
      </trkpt>
      <trkpt lat="47.5263" lon="-1.41025">
        <ele>-6</ele>
        <time>2018-10-24T10:14:22Z</time>
      </trkpt>
      <trkpt lat="47.52625" lon="-1.41003">
        <ele>-6</ele>
        <time>2018-10-24T10:14:28Z</time>
      </trkpt>
      <trkpt lat="47.5262" lon="-1.40988">
        <ele>-6</ele>
        <time>2018-10-24T10:14:33Z</time>
      </trkpt>
      <trkpt lat="47.52611" lon="-1.4097">
        <ele>-6</ele>
        <time>2018-10-24T10:14:39Z</time>
      </trkpt>
      <trkpt lat="47.52609" lon="-1.40947">
        <ele>-6</ele>
        <time>2018-10-24T10:14:45Z</time>
      </trkpt>
      <trkpt lat="47.5261" lon="-1.40923">
        <ele>-6</ele>
        <time>2018-10-24T10:14:52Z</time>
      </trkpt>
      <trkpt lat="47.52613" lon="-1.40886">
        <ele>-6</ele>
        <time>2018-10-24T10:15:01Z</time>
      </trkpt>
      <trkpt lat="47.52613" lon="-1.40877">
        <ele>-6</ele>
        <time>2018-10-24T10:15:03Z</time>
      </trkpt>
      <trkpt lat="47.52612" lon="-1.40859">
        <ele>-6</ele>
        <time>2018-10-24T10:15:07Z</time>
      </trkpt>
      <trkpt lat="47.52611" lon="-1.40854">
        <ele>-6</ele>
        <time>2018-10-24T10:15:08Z</time>
      </trkpt>
      <trkpt lat="47.52612" lon="-1.4083">
        <ele>-6</ele>
        <time>2018-10-24T10:15:14Z</time>
      </trkpt>
      <trkpt lat="47.52611" lon="-1.40815">
        <ele>-6</ele>
        <time>2018-10-24T10:15:18Z</time>
      </trkpt>
      <trkpt lat="47.52613" lon="-1.40792">
        <ele>-6</ele>
        <time>2018-10-24T10:15:23Z</time>
      </trkpt>
      <trkpt lat="47.52622" lon="-1.4077">
        <ele>-6</ele>
        <time>2018-10-24T10:15:28Z</time>
      </trkpt>
      <trkpt lat="47.52626" lon="-1.4075">
        <ele>-6</ele>
        <time>2018-10-24T10:15:34Z</time>
      </trkpt>
      <trkpt lat="47.52625" lon="-1.40746">
        <ele>-6</ele>
        <time>2018-10-24T10:15:35Z</time>
      </trkpt>
      <trkpt lat="47.5262" lon="-1.40732">
        <ele>-6</ele>
        <time>2018-10-24T10:15:38Z</time>
      </trkpt>
      <trkpt lat="47.5262" lon="-1.40724">
        <ele>-6</ele>
        <time>2018-10-24T10:15:40Z</time>
      </trkpt>
      <trkpt lat="47.52621" lon="-1.40718">
        <ele>-6</ele>
        <time>2018-10-24T10:15:42Z</time>
      </trkpt>
      <trkpt lat="47.52619" lon="-1.40704">
        <ele>-5</ele>
        <time>2018-10-24T10:15:47Z</time>
      </trkpt>
      <trkpt lat="47.52618" lon="-1.407">
        <ele>-5</ele>
        <time>2018-10-24T10:15:48Z</time>
      </trkpt>
      <trkpt lat="47.52616" lon="-1.40697">
        <ele>-5</ele>
        <time>2018-10-24T10:15:49Z</time>
      </trkpt>
      <trkpt lat="47.52603" lon="-1.40681">
        <ele>-5</ele>
        <time>2018-10-24T10:15:55Z</time>
      </trkpt>
      <trkpt lat="47.52587" lon="-1.40659">
        <ele>-5</ele>
        <time>2018-10-24T10:16:02Z</time>
      </trkpt>
      <trkpt lat="47.52573" lon="-1.40645">
        <ele>-6</ele>
        <time>2018-10-24T10:16:08Z</time>
      </trkpt>
      <trkpt lat="47.52565" lon="-1.40629">
        <ele>-6</ele>
        <time>2018-10-24T10:16:12Z</time>
      </trkpt>
      <trkpt lat="47.52565" lon="-1.40607">
        <ele>-6</ele>
        <time>2018-10-24T10:16:17Z</time>
      </trkpt>
      <trkpt lat="47.52566" lon="-1.40604">
        <ele>-7</ele>
        <time>2018-10-24T10:16:18Z</time>
      </trkpt>
      <trkpt lat="47.52572" lon="-1.40589">
        <ele>-7</ele>
        <time>2018-10-24T10:16:22Z</time>
      </trkpt>
      <trkpt lat="47.52582" lon="-1.40567">
        <ele>-7</ele>
        <time>2018-10-24T10:16:28Z</time>
      </trkpt>
      <trkpt lat="47.52591" lon="-1.40547">
        <ele>-7</ele>
        <time>2018-10-24T10:16:35Z</time>
      </trkpt>
      <trkpt lat="47.52587" lon="-1.40544">
        <ele>-7</ele>
        <time>2018-10-24T10:16:40Z</time>
      </trkpt>
      <trkpt lat="47.5258" lon="-1.40544">
        <ele>-6</ele>
        <time>2018-10-24T10:19:21Z</time>
      </trkpt>
      <trkpt lat="47.52573" lon="-1.40546">
        <ele>-6</ele>
        <time>2018-10-24T10:19:24Z</time>
      </trkpt>
      <trkpt lat="47.52557" lon="-1.40543">
        <ele>-7</ele>
        <time>2018-10-24T10:19:32Z</time>
      </trkpt>
      <trkpt lat="47.52544" lon="-1.4054">
        <ele>-6</ele>
        <time>2018-10-24T10:19:37Z</time>
      </trkpt>
      <trkpt lat="47.52531" lon="-1.40527">
        <ele>-6</ele>
        <time>2018-10-24T10:19:43Z</time>
      </trkpt>
      <trkpt lat="47.52521" lon="-1.40504">
        <ele>-6</ele>
        <time>2018-10-24T10:19:50Z</time>
      </trkpt>
      <trkpt lat="47.5251" lon="-1.40477">
        <ele>-6</ele>
        <time>2018-10-24T10:19:58Z</time>
      </trkpt>
      <trkpt lat="47.52509" lon="-1.40474">
        <ele>-5</ele>
        <time>2018-10-24T10:19:59Z</time>
      </trkpt>
      <trkpt lat="47.52501" lon="-1.4045">
        <ele>-6</ele>
        <time>2018-10-24T10:20:06Z</time>
      </trkpt>
      <trkpt lat="47.52499" lon="-1.40426">
        <ele>-7</ele>
        <time>2018-10-24T10:20:11Z</time>
      </trkpt>
      <trkpt lat="47.52498" lon="-1.40422">
        <ele>-7</ele>
        <time>2018-10-24T10:20:12Z</time>
      </trkpt>
      <trkpt lat="47.52494" lon="-1.40401">
        <ele>-6</ele>
        <time>2018-10-24T10:20:18Z</time>
      </trkpt>
      <trkpt lat="47.52489" lon="-1.40373">
        <ele>-7</ele>
        <time>2018-10-24T10:20:24Z</time>
      </trkpt>
      <trkpt lat="47.52486" lon="-1.40349">
        <ele>-6</ele>
        <time>2018-10-24T10:20:30Z</time>
      </trkpt>
      <trkpt lat="47.52485" lon="-1.4034">
        <ele>-6</ele>
        <time>2018-10-24T10:20:32Z</time>
      </trkpt>
      <trkpt lat="47.52486" lon="-1.40322">
        <ele>-6</ele>
        <time>2018-10-24T10:20:37Z</time>
      </trkpt>
      <trkpt lat="47.52496" lon="-1.40303">
        <ele>-6</ele>
        <time>2018-10-24T10:20:43Z</time>
      </trkpt>
      <trkpt lat="47.52509" lon="-1.40294">
        <ele>-6</ele>
        <time>2018-10-24T10:20:48Z</time>
      </trkpt>
      <trkpt lat="47.52515" lon="-1.4028">
        <ele>-6</ele>
        <time>2018-10-24T10:20:54Z</time>
      </trkpt>
      <trkpt lat="47.5251" lon="-1.40277">
        <ele>-6</ele>
        <time>2018-10-24T10:20:58Z</time>
      </trkpt>
      <trkpt lat="47.525" lon="-1.40273">
        <ele>-6</ele>
        <time>2018-10-24T10:21:03Z</time>
      </trkpt>
      <trkpt lat="47.5249" lon="-1.40263">
        <ele>-6</ele>
        <time>2018-10-24T10:21:10Z</time>
      </trkpt>
      <trkpt lat="47.52486" lon="-1.40257">
        <ele>-6</ele>
        <time>2018-10-24T10:21:49Z</time>
      </trkpt>
      <trkpt lat="47.52485" lon="-1.40253">
        <ele>-6</ele>
        <time>2018-10-24T10:21:50Z</time>
      </trkpt>
      <trkpt lat="47.52478" lon="-1.40222">
        <ele>-6</ele>
        <time>2018-10-24T10:21:59Z</time>
      </trkpt>
      <trkpt lat="47.52472" lon="-1.40202">
        <ele>-6</ele>
        <time>2018-10-24T10:22:04Z</time>
      </trkpt>
      <trkpt lat="47.52469" lon="-1.40174">
        <ele>-6</ele>
        <time>2018-10-24T10:22:10Z</time>
      </trkpt>
      <trkpt lat="47.52466" lon="-1.40151">
        <ele>-6</ele>
        <time>2018-10-24T10:22:16Z</time>
      </trkpt>
      <trkpt lat="47.52465" lon="-1.40123">
        <ele>-6</ele>
        <time>2018-10-24T10:22:23Z</time>
      </trkpt>
      <trkpt lat="47.52463" lon="-1.40105">
        <ele>-7</ele>
        <time>2018-10-24T10:22:28Z</time>
      </trkpt>
      <trkpt lat="47.52458" lon="-1.40088">
        <ele>-7</ele>
        <time>2018-10-24T10:22:33Z</time>
      </trkpt>
      <trkpt lat="47.52457" lon="-1.40081">
        <ele>-7</ele>
        <time>2018-10-24T10:22:36Z</time>
      </trkpt>
      <trkpt lat="47.52456" lon="-1.40076">
        <ele>-7</ele>
        <time>2018-10-24T10:22:38Z</time>
      </trkpt>
      <trkpt lat="47.52455" lon="-1.40074">
        <ele>-7</ele>
        <time>2018-10-24T10:22:39Z</time>
      </trkpt>
      <trkpt lat="47.52451" lon="-1.40053">
        <ele>-7</ele>
        <time>2018-10-24T10:22:44Z</time>
      </trkpt>
      <trkpt lat="47.52445" lon="-1.40028">
        <ele>-7</ele>
        <time>2018-10-24T10:22:49Z</time>
      </trkpt>
      <trkpt lat="47.52441" lon="-1.40017">
        <ele>-7</ele>
        <time>2018-10-24T10:22:52Z</time>
      </trkpt>
      <trkpt lat="47.52436" lon="-1.4001">
        <ele>-6</ele>
        <time>2018-10-24T10:22:54Z</time>
      </trkpt>
      <trkpt lat="47.52416" lon="-1.39991">
        <ele>-6</ele>
        <time>2018-10-24T10:23:01Z</time>
      </trkpt>
      <trkpt lat="47.52397" lon="-1.39978">
        <ele>-7</ele>
        <time>2018-10-24T10:23:08Z</time>
      </trkpt>
      <trkpt lat="47.52383" lon="-1.39969">
        <ele>-7</ele>
        <time>2018-10-24T10:23:14Z</time>
      </trkpt>
      <trkpt lat="47.52367" lon="-1.39955">
        <ele>-6</ele>
        <time>2018-10-24T10:23:21Z</time>
      </trkpt>
      <trkpt lat="47.52357" lon="-1.39939">
        <ele>-6</ele>
        <time>2018-10-24T10:23:27Z</time>
      </trkpt>
      <trkpt lat="47.52349" lon="-1.39909">
        <ele>-6</ele>
        <time>2018-10-24T10:23:36Z</time>
      </trkpt>
      <trkpt lat="47.52349" lon="-1.39877">
        <ele>-6</ele>
        <time>2018-10-24T10:23:44Z</time>
      </trkpt>
      <trkpt lat="47.5235" lon="-1.39846">
        <ele>-6</ele>
        <time>2018-10-24T10:23:51Z</time>
      </trkpt>
      <trkpt lat="47.52353" lon="-1.39813">
        <ele>-6</ele>
        <time>2018-10-24T10:23:58Z</time>
      </trkpt>
      <trkpt lat="47.52356" lon="-1.39772">
        <ele>-7</ele>
        <time>2018-10-24T10:24:05Z</time>
      </trkpt>
      <trkpt lat="47.52357" lon="-1.39741">
        <ele>-7</ele>
        <time>2018-10-24T10:24:12Z</time>
      </trkpt>
      <trkpt lat="47.5236" lon="-1.39711">
        <ele>-7</ele>
        <time>2018-10-24T10:24:20Z</time>
      </trkpt>
      <trkpt lat="47.52362" lon="-1.39682">
        <ele>-7</ele>
        <time>2018-10-24T10:24:27Z</time>
      </trkpt>
      <trkpt lat="47.52366" lon="-1.39652">
        <ele>-6</ele>
        <time>2018-10-24T10:24:34Z</time>
      </trkpt>
      <trkpt lat="47.52371" lon="-1.39624">
        <ele>-6</ele>
        <time>2018-10-24T10:24:41Z</time>
      </trkpt>
      <trkpt lat="47.52371" lon="-1.39621">
        <ele>-6</ele>
        <time>2018-10-24T10:25:22Z</time>
      </trkpt>
      <trkpt lat="47.5237" lon="-1.39619">
        <ele>-6</ele>
        <time>2018-10-24T10:25:23Z</time>
      </trkpt>
      <trkpt lat="47.52364" lon="-1.39616">
        <ele>-6</ele>
        <time>2018-10-24T10:25:26Z</time>
      </trkpt>
      <trkpt lat="47.52359" lon="-1.39614">
        <ele>-6</ele>
        <time>2018-10-24T10:25:28Z</time>
      </trkpt>
      <trkpt lat="47.52339" lon="-1.39608">
        <ele>-6</ele>
        <time>2018-10-24T10:25:35Z</time>
      </trkpt>
      <trkpt lat="47.52327" lon="-1.39603">
        <ele>-6</ele>
        <time>2018-10-24T10:25:40Z</time>
      </trkpt>
      <trkpt lat="47.52303" lon="-1.396">
        <ele>-6</ele>
        <time>2018-10-24T10:25:48Z</time>
      </trkpt>
      <trkpt lat="47.52275" lon="-1.39602">
        <ele>-6</ele>
        <time>2018-10-24T10:25:57Z</time>
      </trkpt>
      <trkpt lat="47.52255" lon="-1.39612">
        <ele>-7</ele>
        <time>2018-10-24T10:26:05Z</time>
      </trkpt>
      <trkpt lat="47.5225" lon="-1.39619">
        <ele>-7</ele>
        <time>2018-10-24T10:26:09Z</time>
      </trkpt>
      <trkpt lat="47.52245" lon="-1.39619">
        <ele>-7</ele>
        <time>2018-10-24T10:26:11Z</time>
      </trkpt>
      <trkpt lat="47.5224" lon="-1.39614">
        <ele>-7</ele>
        <time>2018-10-24T10:26:14Z</time>
      </trkpt>
      <trkpt lat="47.52235" lon="-1.3961">
        <ele>-6</ele>
        <time>2018-10-24T10:26:17Z</time>
      </trkpt>
      <trkpt lat="47.52232" lon="-1.39609">
        <ele>-6</ele>
        <time>2018-10-24T10:27:04Z</time>
      </trkpt>
      <trkpt lat="47.52227" lon="-1.39608">
        <ele>-6</ele>
        <time>2018-10-24T10:27:06Z</time>
      </trkpt>
      <trkpt lat="47.52216" lon="-1.39593">
        <ele>-6</ele>
        <time>2018-10-24T10:27:11Z</time>
      </trkpt>
      <trkpt lat="47.52207" lon="-1.39561">
        <ele>-7</ele>
        <time>2018-10-24T10:27:17Z</time>
      </trkpt>
      <trkpt lat="47.522" lon="-1.39521">
        <ele>-7</ele>
        <time>2018-10-24T10:27:25Z</time>
      </trkpt>
      <trkpt lat="47.52204" lon="-1.39487">
        <ele>-7</ele>
        <time>2018-10-24T10:27:32Z</time>
      </trkpt>
      <trkpt lat="47.52214" lon="-1.3946">
        <ele>-7</ele>
        <time>2018-10-24T10:27:39Z</time>
      </trkpt>
      <trkpt lat="47.52216" lon="-1.39457">
        <ele>-7</ele>
        <time>2018-10-24T10:27:40Z</time>
      </trkpt>
      <trkpt lat="47.52223" lon="-1.39453">
        <ele>-7</ele>
        <time>2018-10-24T10:27:43Z</time>
      </trkpt>
      <trkpt lat="47.52239" lon="-1.39445">
        <ele>-7</ele>
        <time>2018-10-24T10:27:48Z</time>
      </trkpt>
      <trkpt lat="47.52242" lon="-1.39443">
        <ele>-8</ele>
        <time>2018-10-24T10:27:49Z</time>
      </trkpt>
      <trkpt lat="47.52254" lon="-1.39435">
        <ele>-8</ele>
        <time>2018-10-24T10:27:54Z</time>
      </trkpt>
      <trkpt lat="47.52265" lon="-1.3942">
        <ele>-8</ele>
        <time>2018-10-24T10:28:01Z</time>
      </trkpt>
      <trkpt lat="47.52288" lon="-1.39396">
        <ele>-7</ele>
        <time>2018-10-24T10:28:10Z</time>
      </trkpt>
      <trkpt lat="47.52304" lon="-1.39372">
        <ele>-8</ele>
        <time>2018-10-24T10:28:17Z</time>
      </trkpt>
      <trkpt lat="47.52307" lon="-1.39357">
        <ele>-8</ele>
        <time>2018-10-24T10:28:22Z</time>
      </trkpt>
      <trkpt lat="47.52315" lon="-1.39343">
        <ele>-8</ele>
        <time>2018-10-24T10:28:27Z</time>
      </trkpt>
      <trkpt lat="47.52317" lon="-1.39332">
        <ele>-8</ele>
        <time>2018-10-24T10:28:30Z</time>
      </trkpt>
      <trkpt lat="47.5232" lon="-1.39329">
        <ele>-8</ele>
        <time>2018-10-24T10:28:31Z</time>
      </trkpt>
      <trkpt lat="47.52326" lon="-1.3932">
        <ele>-8</ele>
        <time>2018-10-24T10:28:34Z</time>
      </trkpt>
      <trkpt lat="47.52328" lon="-1.39318">
        <ele>-8</ele>
        <time>2018-10-24T10:28:35Z</time>
      </trkpt>
      <trkpt lat="47.52341" lon="-1.39317">
        <ele>-8</ele>
        <time>2018-10-24T10:28:40Z</time>
      </trkpt>
      <trkpt lat="47.52348" lon="-1.39308">
        <ele>-8</ele>
        <time>2018-10-24T10:28:44Z</time>
      </trkpt>
      <trkpt lat="47.52349" lon="-1.39305">
        <ele>-8</ele>
        <time>2018-10-24T10:28:45Z</time>
      </trkpt>
      <trkpt lat="47.52365" lon="-1.39288">
        <ele>-8</ele>
        <time>2018-10-24T10:28:53Z</time>
      </trkpt>
      <trkpt lat="47.52377" lon="-1.39276">
        <ele>-8</ele>
        <time>2018-10-24T10:28:59Z</time>
      </trkpt>
      <trkpt lat="47.52395" lon="-1.39259">
        <ele>-8</ele>
        <time>2018-10-24T10:29:08Z</time>
      </trkpt>
      <trkpt lat="47.52409" lon="-1.39246">
        <ele>-8</ele>
        <time>2018-10-24T10:29:15Z</time>
      </trkpt>
      <trkpt lat="47.52431" lon="-1.39225">
        <ele>-8</ele>
        <time>2018-10-24T10:29:25Z</time>
      </trkpt>
      <trkpt lat="47.52449" lon="-1.3921">
        <ele>-8</ele>
        <time>2018-10-24T10:29:33Z</time>
      </trkpt>
      <trkpt lat="47.52462" lon="-1.39189">
        <ele>-8</ele>
        <time>2018-10-24T10:29:41Z</time>
      </trkpt>
      <trkpt lat="47.52468" lon="-1.39166">
        <ele>-8</ele>
        <time>2018-10-24T10:29:48Z</time>
      </trkpt>
      <trkpt lat="47.52474" lon="-1.3914">
        <ele>-8</ele>
        <time>2018-10-24T10:29:55Z</time>
      </trkpt>
      <trkpt lat="47.52478" lon="-1.39112">
        <ele>-8</ele>
        <time>2018-10-24T10:30:02Z</time>
      </trkpt>
      <trkpt lat="47.52483" lon="-1.39077">
        <ele>-8</ele>
        <time>2018-10-24T10:30:11Z</time>
      </trkpt>
      <trkpt lat="47.52487" lon="-1.3905">
        <ele>-8</ele>
        <time>2018-10-24T10:30:18Z</time>
      </trkpt>
      <trkpt lat="47.5249" lon="-1.39027">
        <ele>-8</ele>
        <time>2018-10-24T10:30:24Z</time>
      </trkpt>
      <trkpt lat="47.52492" lon="-1.38998">
        <ele>-8</ele>
        <time>2018-10-24T10:30:31Z</time>
      </trkpt>
      <trkpt lat="47.52492" lon="-1.38968">
        <ele>-8</ele>
        <time>2018-10-24T10:30:39Z</time>
      </trkpt>
      <trkpt lat="47.52496" lon="-1.38941">
        <ele>-8</ele>
        <time>2018-10-24T10:30:46Z</time>
      </trkpt>
      <trkpt lat="47.52501" lon="-1.3891">
        <ele>-8</ele>
        <time>2018-10-24T10:30:54Z</time>
      </trkpt>
      <trkpt lat="47.52505" lon="-1.38886">
        <ele>-8</ele>
        <time>2018-10-24T10:31:00Z</time>
      </trkpt>
      <trkpt lat="47.5251" lon="-1.38864">
        <ele>-8</ele>
        <time>2018-10-24T10:31:06Z</time>
      </trkpt>
      <trkpt lat="47.52511" lon="-1.38833">
        <ele>-8</ele>
        <time>2018-10-24T10:31:15Z</time>
      </trkpt>
      <trkpt lat="47.5251" lon="-1.38807">
        <ele>-8</ele>
        <time>2018-10-24T10:31:23Z</time>
      </trkpt>
      <trkpt lat="47.52523" lon="-1.38771">
        <ele>-8</ele>
        <time>2018-10-24T10:31:32Z</time>
      </trkpt>
      <trkpt lat="47.52538" lon="-1.38749">
        <ele>-8</ele>
        <time>2018-10-24T10:31:38Z</time>
      </trkpt>
      <trkpt lat="47.52549" lon="-1.38737">
        <ele>-8</ele>
        <time>2018-10-24T10:31:44Z</time>
      </trkpt>
      <trkpt lat="47.52559" lon="-1.38722">
        <ele>-8</ele>
        <time>2018-10-24T10:31:51Z</time>
      </trkpt>
      <trkpt lat="47.52568" lon="-1.38706">
        <ele>-8</ele>
        <time>2018-10-24T10:31:56Z</time>
      </trkpt>
      <trkpt lat="47.52576" lon="-1.38685">
        <ele>-8</ele>
        <time>2018-10-24T10:32:02Z</time>
      </trkpt>
      <trkpt lat="47.52584" lon="-1.38651">
        <ele>-7</ele>
        <time>2018-10-24T10:32:10Z</time>
      </trkpt>
      <trkpt lat="47.52585" lon="-1.38626">
        <ele>-8</ele>
        <time>2018-10-24T10:32:16Z</time>
      </trkpt>
      <trkpt lat="47.52577" lon="-1.38609">
        <ele>-8</ele>
        <time>2018-10-24T10:32:21Z</time>
      </trkpt>
      <trkpt lat="47.52556" lon="-1.38599">
        <ele>-4</ele>
        <time>2018-10-24T10:35:10Z</time>
      </trkpt>
      <trkpt lat="47.52548" lon="-1.38596">
        <ele>-4</ele>
        <time>2018-10-24T10:35:14Z</time>
      </trkpt>
      <trkpt lat="47.52546" lon="-1.38596">
        <ele>-4</ele>
        <time>2018-10-24T10:35:15Z</time>
      </trkpt>
      <trkpt lat="47.52525" lon="-1.38589">
        <ele>-4</ele>
        <time>2018-10-24T10:35:22Z</time>
      </trkpt>
      <trkpt lat="47.52507" lon="-1.38579">
        <ele>-3</ele>
        <time>2018-10-24T10:35:29Z</time>
      </trkpt>
      <trkpt lat="47.52489" lon="-1.38561">
        <ele>-2</ele>
        <time>2018-10-24T10:35:36Z</time>
      </trkpt>
      <trkpt lat="47.52467" lon="-1.38535">
        <ele>-2</ele>
        <time>2018-10-24T10:35:45Z</time>
      </trkpt>
      <trkpt lat="47.52455" lon="-1.38509">
        <ele>-2</ele>
        <time>2018-10-24T10:35:52Z</time>
      </trkpt>
      <trkpt lat="47.52445" lon="-1.38472">
        <ele>-2</ele>
        <time>2018-10-24T10:36:00Z</time>
      </trkpt>
      <trkpt lat="47.52441" lon="-1.38446">
        <ele>-2</ele>
        <time>2018-10-24T10:36:06Z</time>
      </trkpt>
      <trkpt lat="47.52441" lon="-1.38442">
        <ele>-2</ele>
        <time>2018-10-24T10:36:07Z</time>
      </trkpt>
      <trkpt lat="47.52439" lon="-1.38413">
        <ele>-2</ele>
        <time>2018-10-24T10:36:14Z</time>
      </trkpt>
      <trkpt lat="47.52436" lon="-1.3838">
        <ele>-1</ele>
        <time>2018-10-24T10:36:22Z</time>
      </trkpt>
      <trkpt lat="47.52435" lon="-1.38376">
        <ele>-1</ele>
        <time>2018-10-24T10:36:23Z</time>
      </trkpt>
      <trkpt lat="47.52434" lon="-1.38351">
        <ele>-1</ele>
        <time>2018-10-24T10:36:29Z</time>
      </trkpt>
      <trkpt lat="47.52433" lon="-1.38314">
        <ele>37.7</ele>
        <time>2018-10-24T10:36:37Z</time>
      </trkpt>
      <trkpt lat="47.52434" lon="-1.38306">
        <ele>37.8</ele>
        <time>2018-10-24T10:36:39Z</time>
      </trkpt>
      <trkpt lat="47.52432" lon="-1.38289">
        <ele>38</ele>
        <time>2018-10-24T10:36:43Z</time>
      </trkpt>
      <trkpt lat="47.52432" lon="-1.38254">
        <ele>1</ele>
        <time>2018-10-24T10:36:51Z</time>
      </trkpt>
      <trkpt lat="47.52429" lon="-1.38225">
        <ele>1</ele>
        <time>2018-10-24T10:36:59Z</time>
      </trkpt>
      <trkpt lat="47.5243" lon="-1.38207">
        <ele>38.8</ele>
        <time>2018-10-24T10:38:42Z</time>
      </trkpt>
      <trkpt lat="47.52429" lon="-1.38201">
        <ele>38.9</ele>
        <time>2018-10-24T10:38:44Z</time>
      </trkpt>
      <trkpt lat="47.52428" lon="-1.38197">
        <ele>39</ele>
        <time>2018-10-24T10:38:46Z</time>
      </trkpt>
      <trkpt lat="47.52428" lon="-1.38185">
        <ele>2</ele>
        <time>2018-10-24T10:38:53Z</time>
      </trkpt>
      <trkpt lat="47.52428" lon="-1.38182">
        <ele>2</ele>
        <time>2018-10-24T10:38:54Z</time>
      </trkpt>
      <trkpt lat="47.52427" lon="-1.38163">
        <ele>2</ele>
        <time>2018-10-24T10:39:05Z</time>
      </trkpt>
      <trkpt lat="47.52426" lon="-1.38157">
        <ele>2</ele>
        <time>2018-10-24T10:39:07Z</time>
      </trkpt>
      <trkpt lat="47.52425" lon="-1.38109">
        <ele>3</ele>
        <time>2018-10-24T10:39:37Z</time>
      </trkpt>
      <trkpt lat="47.52424" lon="-1.38086">
        <ele>3</ele>
        <time>2018-10-24T10:39:44Z</time>
      </trkpt>
      <trkpt lat="47.52424" lon="-1.38058">
        <ele>3</ele>
        <time>2018-10-24T10:39:51Z</time>
      </trkpt>
      <trkpt lat="47.52422" lon="-1.38035">
        <ele>4</ele>
        <time>2018-10-24T10:39:57Z</time>
      </trkpt>
      <trkpt lat="47.52421" lon="-1.38009">
        <ele>4</ele>
        <time>2018-10-24T10:40:03Z</time>
      </trkpt>
      <trkpt lat="47.52421" lon="-1.37991">
        <ele>4</ele>
        <time>2018-10-24T10:40:08Z</time>
      </trkpt>
      <trkpt lat="47.52421" lon="-1.37987">
        <ele>4</ele>
        <time>2018-10-24T10:40:09Z</time>
      </trkpt>
      <trkpt lat="47.5242" lon="-1.37959">
        <ele>4</ele>
        <time>2018-10-24T10:40:16Z</time>
      </trkpt>
      <trkpt lat="47.52419" lon="-1.37929">
        <ele>5</ele>
        <time>2018-10-24T10:40:23Z</time>
      </trkpt>
      <trkpt lat="47.52417" lon="-1.37901">
        <ele>5</ele>
        <time>2018-10-24T10:40:30Z</time>
      </trkpt>
      <trkpt lat="47.52416" lon="-1.37885">
        <ele>5</ele>
        <time>2018-10-24T10:40:34Z</time>
      </trkpt>
      <trkpt lat="47.52416" lon="-1.37871">
        <ele>5</ele>
        <time>2018-10-24T10:40:37Z</time>
      </trkpt>
      <trkpt lat="47.52413" lon="-1.37836">
        <ele>5</ele>
        <time>2018-10-24T10:40:46Z</time>
      </trkpt>
      <trkpt lat="47.52411" lon="-1.37808">
        <ele>6</ele>
        <time>2018-10-24T10:40:53Z</time>
      </trkpt>
      <trkpt lat="47.52412" lon="-1.37783">
        <ele>6</ele>
        <time>2018-10-24T10:40:59Z</time>
      </trkpt>
      <trkpt lat="47.52412" lon="-1.3776">
        <ele>6</ele>
        <time>2018-10-24T10:41:05Z</time>
      </trkpt>
      <trkpt lat="47.52411" lon="-1.37739">
        <ele>6</ele>
        <time>2018-10-24T10:41:11Z</time>
      </trkpt>
      <trkpt lat="47.52417" lon="-1.37729">
        <ele>6</ele>
        <time>2018-10-24T10:41:48Z</time>
      </trkpt>
      <trkpt lat="47.5242" lon="-1.37729">
        <ele>6</ele>
        <time>2018-10-24T10:41:49Z</time>
      </trkpt>
      <trkpt lat="47.52435" lon="-1.37706">
        <ele>5</ele>
        <time>2018-10-24T10:47:35Z</time>
      </trkpt>
      <trkpt lat="47.5243" lon="-1.37708">
        <ele>5</ele>
        <time>2018-10-24T10:47:37Z</time>
      </trkpt>
      <trkpt lat="47.52426" lon="-1.37706">
        <ele>5</ele>
        <time>2018-10-24T10:47:39Z</time>
      </trkpt>
      <trkpt lat="47.52422" lon="-1.37698">
        <ele>5</ele>
        <time>2018-10-24T10:47:41Z</time>
      </trkpt>
      <trkpt lat="47.52421" lon="-1.37685">
        <ele>5</ele>
        <time>2018-10-24T10:47:43Z</time>
      </trkpt>
      <trkpt lat="47.5242" lon="-1.37665">
        <ele>4</ele>
        <time>2018-10-24T10:47:46Z</time>
      </trkpt>
      <trkpt lat="47.52416" lon="-1.37617">
        <ele>3</ele>
        <time>2018-10-24T10:47:53Z</time>
      </trkpt>
      <trkpt lat="47.52416" lon="-1.37611">
        <ele>3</ele>
        <time>2018-10-24T10:47:54Z</time>
      </trkpt>
      <trkpt lat="47.52419" lon="-1.37587">
        <ele>3</ele>
        <time>2018-10-24T10:47:58Z</time>
      </trkpt>
      <trkpt lat="47.52415" lon="-1.37568">
        <ele>3</ele>
        <time>2018-10-24T10:48:44Z</time>
      </trkpt>
      <trkpt lat="47.52411" lon="-1.37562">
        <ele>3</ele>
        <time>2018-10-24T10:48:46Z</time>
      </trkpt>
      <trkpt lat="47.52411" lon="-1.37551">
        <ele>2</ele>
        <time>2018-10-24T10:48:49Z</time>
      </trkpt>
      <trkpt lat="47.52412" lon="-1.37546">
        <ele>2</ele>
        <time>2018-10-24T10:48:50Z</time>
      </trkpt>
      <trkpt lat="47.5241" lon="-1.37521">
        <ele>2</ele>
        <time>2018-10-24T10:48:55Z</time>
      </trkpt>
      <trkpt lat="47.52404" lon="-1.37504">
        <ele>1</ele>
        <time>2018-10-24T10:49:00Z</time>
      </trkpt>
      <trkpt lat="47.52404" lon="-1.37496">
        <ele>1</ele>
        <time>2018-10-24T10:49:02Z</time>
      </trkpt>
      <trkpt lat="47.52404" lon="-1.37477">
        <ele>2</ele>
        <time>2018-10-24T10:49:06Z</time>
      </trkpt>
      <trkpt lat="47.52403" lon="-1.37446">
        <ele>2</ele>
        <time>2018-10-24T10:49:12Z</time>
      </trkpt>
      <trkpt lat="47.524" lon="-1.37427">
        <ele>2</ele>
        <time>2018-10-24T10:49:15Z</time>
      </trkpt>
      <trkpt lat="47.52396" lon="-1.37415">
        <ele>1</ele>
        <time>2018-10-24T10:49:17Z</time>
      </trkpt>
      <trkpt lat="47.52393" lon="-1.3741">
        <ele>1</ele>
        <time>2018-10-24T10:49:18Z</time>
      </trkpt>
      <trkpt lat="47.52381" lon="-1.374">
        <ele>1</ele>
        <time>2018-10-24T10:49:21Z</time>
      </trkpt>
      <trkpt lat="47.52373" lon="-1.37396">
        <ele>37.6</ele>
        <time>2018-10-24T10:49:23Z</time>
      </trkpt>
      <trkpt lat="47.52369" lon="-1.37394">
        <ele>37.4</ele>
        <time>2018-10-24T10:49:24Z</time>
      </trkpt>
      <trkpt lat="47.52358" lon="-1.3739">
        <ele>37</ele>
        <time>2018-10-24T10:49:27Z</time>
      </trkpt>
      <trkpt lat="47.52348" lon="-1.37386">
        <ele>-1</ele>
        <time>2018-10-24T10:49:30Z</time>
      </trkpt>
      <trkpt lat="47.52333" lon="-1.37378">
        <ele>-1</ele>
        <time>2018-10-24T10:49:34Z</time>
      </trkpt>
      <trkpt lat="47.52312" lon="-1.37368">
        <ele>-2</ele>
        <time>2018-10-24T10:49:40Z</time>
      </trkpt>
      <trkpt lat="47.52287" lon="-1.37358">
        <ele>-3</ele>
        <time>2018-10-24T10:49:47Z</time>
      </trkpt>
      <trkpt lat="47.52274" lon="-1.37354">
        <ele>-3</ele>
        <time>2018-10-24T10:49:51Z</time>
      </trkpt>
      <trkpt lat="47.52267" lon="-1.3735">
        <ele>-3</ele>
        <time>2018-10-24T10:49:54Z</time>
      </trkpt>
      <trkpt lat="47.5225" lon="-1.37343">
        <ele>-4</ele>
        <time>2018-10-24T10:50:00Z</time>
      </trkpt>
      <trkpt lat="47.52245" lon="-1.37341">
        <ele>-4</ele>
        <time>2018-10-24T10:50:02Z</time>
      </trkpt>
      <trkpt lat="47.52231" lon="-1.37336">
        <ele>-4</ele>
        <time>2018-10-24T10:50:07Z</time>
      </trkpt>
      <trkpt lat="47.52223" lon="-1.37332">
        <ele>-5</ele>
        <time>2018-10-24T10:50:23Z</time>
      </trkpt>
      <trkpt lat="47.52221" lon="-1.37332">
        <ele>-5</ele>
        <time>2018-10-24T10:50:24Z</time>
      </trkpt>
      <trkpt lat="47.52213" lon="-1.37329">
        <ele>-5</ele>
        <time>2018-10-24T10:50:27Z</time>
      </trkpt>
      <trkpt lat="47.52205" lon="-1.37327">
        <ele>-5</ele>
        <time>2018-10-24T10:50:30Z</time>
      </trkpt>
      <trkpt lat="47.52185" lon="-1.37318">
        <ele>-5</ele>
        <time>2018-10-24T10:50:36Z</time>
      </trkpt>
      <trkpt lat="47.52165" lon="-1.37309">
        <ele>-6</ele>
        <time>2018-10-24T10:50:42Z</time>
      </trkpt>
      <trkpt lat="47.52158" lon="-1.37307">
        <ele>-6</ele>
        <time>2018-10-24T10:50:44Z</time>
      </trkpt>
      <trkpt lat="47.52142" lon="-1.37301">
        <ele>-6</ele>
        <time>2018-10-24T10:50:48Z</time>
      </trkpt>
      <trkpt lat="47.52123" lon="-1.37287">
        <ele>-7</ele>
        <time>2018-10-24T10:50:54Z</time>
      </trkpt>
      <trkpt lat="47.52107" lon="-1.37277">
        <ele>-7</ele>
        <time>2018-10-24T10:51:00Z</time>
      </trkpt>
      <trkpt lat="47.52105" lon="-1.37273">
        <ele>-7</ele>
        <time>2018-10-24T10:51:01Z</time>
      </trkpt>
      <trkpt lat="47.52103" lon="-1.37262">
        <ele>-7</ele>
        <time>2018-10-24T10:51:04Z</time>
      </trkpt>
      <trkpt lat="47.52102" lon="-1.37259">
        <ele>-7</ele>
        <time>2018-10-24T10:51:05Z</time>
      </trkpt>
      <trkpt lat="47.521" lon="-1.37238">
        <ele>-7</ele>
        <time>2018-10-24T10:51:10Z</time>
      </trkpt>
      <trkpt lat="47.52103" lon="-1.37196">
        <ele>-6</ele>
        <time>2018-10-24T10:51:18Z</time>
      </trkpt>
      <trkpt lat="47.52103" lon="-1.37161">
        <ele>-6</ele>
        <time>2018-10-24T10:51:26Z</time>
      </trkpt>
      <trkpt lat="47.52107" lon="-1.3714">
        <ele>-6</ele>
        <time>2018-10-24T10:51:32Z</time>
      </trkpt>
      <trkpt lat="47.52107" lon="-1.37131">
        <ele>-6</ele>
        <time>2018-10-24T10:53:40Z</time>
      </trkpt>
      <trkpt lat="47.52106" lon="-1.37128">
        <ele>-6</ele>
        <time>2018-10-24T10:53:41Z</time>
      </trkpt>
      <trkpt lat="47.52107" lon="-1.37114">
        <ele>-6</ele>
        <time>2018-10-24T10:53:44Z</time>
      </trkpt>
      <trkpt lat="47.52107" lon="-1.37105">
        <ele>-7</ele>
        <time>2018-10-24T10:53:46Z</time>
      </trkpt>
      <trkpt lat="47.52107" lon="-1.37082">
        <ele>-7</ele>
        <time>2018-10-24T10:53:51Z</time>
      </trkpt>
      <trkpt lat="47.52107" lon="-1.37064">
        <ele>-7</ele>
        <time>2018-10-24T10:53:55Z</time>
      </trkpt>
      <trkpt lat="47.52108" lon="-1.37031">
        <ele>-7</ele>
        <time>2018-10-24T10:54:02Z</time>
      </trkpt>
      <trkpt lat="47.5211" lon="-1.37004">
        <ele>-7</ele>
        <time>2018-10-24T10:54:08Z</time>
      </trkpt>
      <trkpt lat="47.52121" lon="-1.36977">
        <ele>-7</ele>
        <time>2018-10-24T10:54:15Z</time>
      </trkpt>
      <trkpt lat="47.52136" lon="-1.36946">
        <ele>-7</ele>
        <time>2018-10-24T10:54:23Z</time>
      </trkpt>
      <trkpt lat="47.52139" lon="-1.36919">
        <ele>-7</ele>
        <time>2018-10-24T10:54:28Z</time>
      </trkpt>
      <trkpt lat="47.52139" lon="-1.36886">
        <ele>-7</ele>
        <time>2018-10-24T10:54:35Z</time>
      </trkpt>
      <trkpt lat="47.52137" lon="-1.36854">
        <ele>-7</ele>
        <time>2018-10-24T10:54:42Z</time>
      </trkpt>
      <trkpt lat="47.52135" lon="-1.36826">
        <ele>-7</ele>
        <time>2018-10-24T10:54:49Z</time>
      </trkpt>
      <trkpt lat="47.52133" lon="-1.36793">
        <ele>-7</ele>
        <time>2018-10-24T10:54:57Z</time>
      </trkpt>
      <trkpt lat="47.5213" lon="-1.36764">
        <ele>-7</ele>
        <time>2018-10-24T10:55:03Z</time>
      </trkpt>
      <trkpt lat="47.52131" lon="-1.36734">
        <ele>-7</ele>
        <time>2018-10-24T10:55:09Z</time>
      </trkpt>
      <trkpt lat="47.52129" lon="-1.36698">
        <ele>-7</ele>
        <time>2018-10-24T10:55:17Z</time>
      </trkpt>
      <trkpt lat="47.52131" lon="-1.3667">
        <ele>-7</ele>
        <time>2018-10-24T10:55:24Z</time>
      </trkpt>
      <trkpt lat="47.52138" lon="-1.36642">
        <ele>-7</ele>
        <time>2018-10-24T10:55:30Z</time>
      </trkpt>
      <trkpt lat="47.52154" lon="-1.3661">
        <ele>-7</ele>
        <time>2018-10-24T10:55:37Z</time>
      </trkpt>
      <trkpt lat="47.52162" lon="-1.36593">
        <ele>-7</ele>
        <time>2018-10-24T10:55:42Z</time>
      </trkpt>
      <trkpt lat="47.52169" lon="-1.36576">
        <ele>-7</ele>
        <time>2018-10-24T10:55:48Z</time>
      </trkpt>
      <trkpt lat="47.52177" lon="-1.36557">
        <ele>-7</ele>
        <time>2018-10-24T10:55:54Z</time>
      </trkpt>
      <trkpt lat="47.52179" lon="-1.36539">
        <ele>-7</ele>
        <time>2018-10-24T10:56:00Z</time>
      </trkpt>
      <trkpt lat="47.52177" lon="-1.36513">
        <ele>-7</ele>
        <time>2018-10-24T10:56:07Z</time>
      </trkpt>
      <trkpt lat="47.52167" lon="-1.36492">
        <ele>-7</ele>
        <time>2018-10-24T10:56:14Z</time>
      </trkpt>
      <trkpt lat="47.52153" lon="-1.36467">
        <ele>-7</ele>
        <time>2018-10-24T10:56:22Z</time>
      </trkpt>
      <trkpt lat="47.52146" lon="-1.36448">
        <ele>-7</ele>
        <time>2018-10-24T10:56:47Z</time>
      </trkpt>
      <trkpt lat="47.52143" lon="-1.36441">
        <ele>-7</ele>
        <time>2018-10-24T10:56:49Z</time>
      </trkpt>
      <trkpt lat="47.5214" lon="-1.36418">
        <ele>-7</ele>
        <time>2018-10-24T10:56:55Z</time>
      </trkpt>
      <trkpt lat="47.52136" lon="-1.36387">
        <ele>-7</ele>
        <time>2018-10-24T10:57:02Z</time>
      </trkpt>
      <trkpt lat="47.52133" lon="-1.36355">
        <ele>-7</ele>
        <time>2018-10-24T10:57:09Z</time>
      </trkpt>
      <trkpt lat="47.52132" lon="-1.36321">
        <ele>-7</ele>
        <time>2018-10-24T10:57:16Z</time>
      </trkpt>
      <trkpt lat="47.52131" lon="-1.36283">
        <ele>-7</ele>
        <time>2018-10-24T10:57:24Z</time>
      </trkpt>
      <trkpt lat="47.5213" lon="-1.36245">
        <ele>-7</ele>
        <time>2018-10-24T10:57:33Z</time>
      </trkpt>
      <trkpt lat="47.52133" lon="-1.36212">
        <ele>-7</ele>
        <time>2018-10-24T10:57:41Z</time>
      </trkpt>
      <trkpt lat="47.52136" lon="-1.36185">
        <ele>-7</ele>
        <time>2018-10-24T10:57:48Z</time>
      </trkpt>
      <trkpt lat="47.52139" lon="-1.36152">
        <ele>-7</ele>
        <time>2018-10-24T10:57:56Z</time>
      </trkpt>
      <trkpt lat="47.52142" lon="-1.36123">
        <ele>-7</ele>
        <time>2018-10-24T10:58:03Z</time>
      </trkpt>
      <trkpt lat="47.52144" lon="-1.36096">
        <ele>-6</ele>
        <time>2018-10-24T10:58:10Z</time>
      </trkpt>
      <trkpt lat="47.52148" lon="-1.36062">
        <ele>-7</ele>
        <time>2018-10-24T10:58:18Z</time>
      </trkpt>
      <trkpt lat="47.52153" lon="-1.36025">
        <ele>-7</ele>
        <time>2018-10-24T10:58:26Z</time>
      </trkpt>
      <trkpt lat="47.5216" lon="-1.35996">
        <ele>-7</ele>
        <time>2018-10-24T10:58:33Z</time>
      </trkpt>
      <trkpt lat="47.5217" lon="-1.35963">
        <ele>-7</ele>
        <time>2018-10-24T10:58:41Z</time>
      </trkpt>
      <trkpt lat="47.52181" lon="-1.35936">
        <ele>-7</ele>
        <time>2018-10-24T10:58:49Z</time>
      </trkpt>
      <trkpt lat="47.52193" lon="-1.35916">
        <ele>-7</ele>
        <time>2018-10-24T10:58:56Z</time>
      </trkpt>
      <trkpt lat="47.5221" lon="-1.35896">
        <ele>-7</ele>
        <time>2018-10-24T10:59:03Z</time>
      </trkpt>
      <trkpt lat="47.52226" lon="-1.35879">
        <ele>-7</ele>
        <time>2018-10-24T10:59:10Z</time>
      </trkpt>
      <trkpt lat="47.52241" lon="-1.35867">
        <ele>-6</ele>
        <time>2018-10-24T10:59:16Z</time>
      </trkpt>
      <trkpt lat="47.52245" lon="-1.35864">
        <ele>-6</ele>
        <time>2018-10-24T10:59:17Z</time>
      </trkpt>
      <trkpt lat="47.52258" lon="-1.35852">
        <ele>-7</ele>
        <time>2018-10-24T10:59:22Z</time>
      </trkpt>
      <trkpt lat="47.52273" lon="-1.35838">
        <ele>-7</ele>
        <time>2018-10-24T10:59:28Z</time>
      </trkpt>
      <trkpt lat="47.52281" lon="-1.35824">
        <ele>-7</ele>
        <time>2018-10-24T10:59:33Z</time>
      </trkpt>
      <trkpt lat="47.52293" lon="-1.35801">
        <ele>-6</ele>
        <time>2018-10-24T10:59:39Z</time>
      </trkpt>
      <trkpt lat="47.52299" lon="-1.35778">
        <ele>-6</ele>
        <time>2018-10-24T10:59:45Z</time>
      </trkpt>
      <trkpt lat="47.52304" lon="-1.35749">
        <ele>-6</ele>
        <time>2018-10-24T10:59:52Z</time>
      </trkpt>
      <trkpt lat="47.52303" lon="-1.35719">
        <ele>-6</ele>
        <time>2018-10-24T10:59:59Z</time>
      </trkpt>
      <trkpt lat="47.52301" lon="-1.35688">
        <ele>-6</ele>
        <time>2018-10-24T11:00:06Z</time>
      </trkpt>
      <trkpt lat="47.52293" lon="-1.35662">
        <ele>-7</ele>
        <time>2018-10-24T11:00:13Z</time>
      </trkpt>
      <trkpt lat="47.52283" lon="-1.35639">
        <ele>-7</ele>
        <time>2018-10-24T11:00:20Z</time>
      </trkpt>
      <trkpt lat="47.52269" lon="-1.35621">
        <ele>-7</ele>
        <time>2018-10-24T11:00:27Z</time>
      </trkpt>
      <trkpt lat="47.52252" lon="-1.35599">
        <ele>-7</ele>
        <time>2018-10-24T11:00:35Z</time>
      </trkpt>
      <trkpt lat="47.52238" lon="-1.35582">
        <ele>-7</ele>
        <time>2018-10-24T11:00:41Z</time>
      </trkpt>
      <trkpt lat="47.52225" lon="-1.35566">
        <ele>-7</ele>
        <time>2018-10-24T11:00:47Z</time>
      </trkpt>
      <trkpt lat="47.52208" lon="-1.35543">
        <ele>-7</ele>
        <time>2018-10-24T11:00:55Z</time>
      </trkpt>
      <trkpt lat="47.52198" lon="-1.35525">
        <ele>-7</ele>
        <time>2018-10-24T11:01:01Z</time>
      </trkpt>
      <trkpt lat="47.52198" lon="-1.355">
        <ele>-7</ele>
        <time>2018-10-24T11:01:07Z</time>
      </trkpt>
      <trkpt lat="47.52206" lon="-1.35472">
        <ele>-7</ele>
        <time>2018-10-24T11:01:13Z</time>
      </trkpt>
      <trkpt lat="47.52212" lon="-1.3545">
        <ele>-7</ele>
        <time>2018-10-24T11:01:19Z</time>
      </trkpt>
      <trkpt lat="47.52219" lon="-1.35426">
        <ele>-7</ele>
        <time>2018-10-24T11:01:26Z</time>
      </trkpt>
      <trkpt lat="47.52227" lon="-1.35405">
        <ele>-7</ele>
        <time>2018-10-24T11:01:32Z</time>
      </trkpt>
      <trkpt lat="47.5224" lon="-1.35373">
        <ele>-7</ele>
        <time>2018-10-24T11:01:40Z</time>
      </trkpt>
      <trkpt lat="47.5225" lon="-1.35345">
        <ele>-7</ele>
        <time>2018-10-24T11:01:47Z</time>
      </trkpt>
      <trkpt lat="47.52257" lon="-1.35323">
        <ele>-7</ele>
        <time>2018-10-24T11:01:53Z</time>
      </trkpt>
      <trkpt lat="47.52263" lon="-1.353">
        <ele>-7</ele>
        <time>2018-10-24T11:01:59Z</time>
      </trkpt>
      <trkpt lat="47.52266" lon="-1.35276">
        <ele>-7</ele>
        <time>2018-10-24T11:02:05Z</time>
      </trkpt>
      <trkpt lat="47.52272" lon="-1.35241">
        <ele>-7</ele>
        <time>2018-10-24T11:02:13Z</time>
      </trkpt>
      <trkpt lat="47.5228" lon="-1.35204">
        <ele>-7</ele>
        <time>2018-10-24T11:02:22Z</time>
      </trkpt>
      <trkpt lat="47.52284" lon="-1.35173">
        <ele>-7</ele>
        <time>2018-10-24T11:02:30Z</time>
      </trkpt>
      <trkpt lat="47.5229" lon="-1.35144">
        <ele>-7</ele>
        <time>2018-10-24T11:02:37Z</time>
      </trkpt>
      <trkpt lat="47.52299" lon="-1.35104">
        <ele>-7</ele>
        <time>2018-10-24T11:02:45Z</time>
      </trkpt>
      <trkpt lat="47.52306" lon="-1.35077">
        <ele>-7</ele>
        <time>2018-10-24T11:02:51Z</time>
      </trkpt>
      <trkpt lat="47.52312" lon="-1.35042">
        <ele>-7</ele>
        <time>2018-10-24T11:02:59Z</time>
      </trkpt>
      <trkpt lat="47.52317" lon="-1.35014">
        <ele>-7</ele>
        <time>2018-10-24T11:03:07Z</time>
      </trkpt>
      <trkpt lat="47.52319" lon="-1.34999">
        <ele>-7</ele>
        <time>2018-10-24T11:04:27Z</time>
      </trkpt>
      <trkpt lat="47.52322" lon="-1.34981">
        <ele>-7</ele>
        <time>2018-10-24T11:04:32Z</time>
      </trkpt>
      <trkpt lat="47.52327" lon="-1.34938">
        <ele>-7</ele>
        <time>2018-10-24T11:04:42Z</time>
      </trkpt>
      <trkpt lat="47.52334" lon="-1.34897">
        <ele>-6</ele>
        <time>2018-10-24T11:04:51Z</time>
      </trkpt>
      <trkpt lat="47.52341" lon="-1.34873">
        <ele>-6</ele>
        <time>2018-10-24T11:04:57Z</time>
      </trkpt>
      <trkpt lat="47.52354" lon="-1.3485">
        <ele>-6</ele>
        <time>2018-10-24T11:05:04Z</time>
      </trkpt>
      <trkpt lat="47.5237" lon="-1.34831">
        <ele>-6</ele>
        <time>2018-10-24T11:05:11Z</time>
      </trkpt>
      <trkpt lat="47.52389" lon="-1.34816">
        <ele>-6</ele>
        <time>2018-10-24T11:05:18Z</time>
      </trkpt>
      <trkpt lat="47.52408" lon="-1.34802">
        <ele>-6</ele>
        <time>2018-10-24T11:05:25Z</time>
      </trkpt>
      <trkpt lat="47.52426" lon="-1.34786">
        <ele>-6</ele>
        <time>2018-10-24T11:05:32Z</time>
      </trkpt>
      <trkpt lat="47.52442" lon="-1.34769">
        <ele>-6</ele>
        <time>2018-10-24T11:05:39Z</time>
      </trkpt>
      <trkpt lat="47.52459" lon="-1.34747">
        <ele>-6</ele>
        <time>2018-10-24T11:05:46Z</time>
      </trkpt>
      <trkpt lat="47.5248" lon="-1.34718">
        <ele>-6</ele>
        <time>2018-10-24T11:05:54Z</time>
      </trkpt>
      <trkpt lat="47.52494" lon="-1.34698">
        <ele>-6</ele>
        <time>2018-10-24T11:06:00Z</time>
      </trkpt>
      <trkpt lat="47.52506" lon="-1.34679">
        <ele>-6</ele>
        <time>2018-10-24T11:06:07Z</time>
      </trkpt>
      <trkpt lat="47.5251" lon="-1.34678">
        <ele>-6</ele>
        <time>2018-10-24T11:06:09Z</time>
      </trkpt>
      <trkpt lat="47.52512" lon="-1.34681">
        <ele>-5</ele>
        <time>2018-10-24T11:06:11Z</time>
      </trkpt>
      <trkpt lat="47.52515" lon="-1.34683">
        <ele>-5</ele>
        <time>2018-10-24T11:06:13Z</time>
      </trkpt>
      <trkpt lat="47.52519" lon="-1.34692">
        <ele>-5</ele>
        <time>2018-10-24T11:07:43Z</time>
      </trkpt>
      <trkpt lat="47.5252" lon="-1.34694">
        <ele>-5</ele>
        <time>2018-10-24T11:07:44Z</time>
      </trkpt>
      <trkpt lat="47.52531" lon="-1.34717">
        <ele>-5</ele>
        <time>2018-10-24T11:07:51Z</time>
      </trkpt>
      <trkpt lat="47.52542" lon="-1.3474">
        <ele>-5</ele>
        <time>2018-10-24T11:07:57Z</time>
      </trkpt>
      <trkpt lat="47.52544" lon="-1.34767">
        <ele>-5</ele>
        <time>2018-10-24T11:08:03Z</time>
      </trkpt>
      <trkpt lat="47.52548" lon="-1.34805">
        <ele>-5</ele>
        <time>2018-10-24T11:08:11Z</time>
      </trkpt>
      <trkpt lat="47.52552" lon="-1.34847">
        <ele>-5</ele>
        <time>2018-10-24T11:08:19Z</time>
      </trkpt>
      <trkpt lat="47.52555" lon="-1.34889">
        <ele>-5</ele>
        <time>2018-10-24T11:08:27Z</time>
      </trkpt>
      <trkpt lat="47.52559" lon="-1.34918">
        <ele>-5</ele>
        <time>2018-10-24T11:08:34Z</time>
      </trkpt>
      <trkpt lat="47.52568" lon="-1.3495">
        <ele>-5</ele>
        <time>2018-10-24T11:08:42Z</time>
      </trkpt>
      <trkpt lat="47.52582" lon="-1.34976">
        <ele>-4</ele>
        <time>2018-10-24T11:08:50Z</time>
      </trkpt>
      <trkpt lat="47.52587" lon="-1.3498">
        <ele>-4</ele>
        <time>2018-10-24T11:08:52Z</time>
      </trkpt>
      <trkpt lat="47.52597" lon="-1.3499">
        <ele>-4</ele>
        <time>2018-10-24T11:08:56Z</time>
      </trkpt>
      <trkpt lat="47.5261" lon="-1.35008">
        <ele>-4</ele>
        <time>2018-10-24T11:09:02Z</time>
      </trkpt>
      <trkpt lat="47.52627" lon="-1.35031">
        <ele>-3</ele>
        <time>2018-10-24T11:09:09Z</time>
      </trkpt>
      <trkpt lat="47.52628" lon="-1.35035">
        <ele>-3</ele>
        <time>2018-10-24T11:09:10Z</time>
      </trkpt>
      <trkpt lat="47.52638" lon="-1.35053">
        <ele>-3</ele>
        <time>2018-10-24T11:09:15Z</time>
      </trkpt>
      <trkpt lat="47.52652" lon="-1.35087">
        <ele>-2</ele>
        <time>2018-10-24T11:09:24Z</time>
      </trkpt>
      <trkpt lat="47.52664" lon="-1.35107">
        <ele>-2</ele>
        <time>2018-10-24T11:09:30Z</time>
      </trkpt>
      <trkpt lat="47.52678" lon="-1.35131">
        <ele>-1</ele>
        <time>2018-10-24T11:09:37Z</time>
      </trkpt>
      <trkpt lat="47.52684" lon="-1.35141">
        <ele>-1</ele>
        <time>2018-10-24T11:09:40Z</time>
      </trkpt>
      <trkpt lat="47.52691" lon="-1.35155">
        <ele>-1</ele>
        <time>2018-10-24T11:09:44Z</time>
      </trkpt>
      <trkpt lat="47.52705" lon="-1.35192">
        <ele>-1</ele>
        <time>2018-10-24T11:09:53Z</time>
      </trkpt>
      <trkpt lat="47.52711" lon="-1.3522">
        <ele>-1</ele>
        <time>2018-10-24T11:09:59Z</time>
      </trkpt>
      <trkpt lat="47.5272" lon="-1.35249">
        <ele>-1</ele>
        <time>2018-10-24T11:10:06Z</time>
      </trkpt>
      <trkpt lat="47.52729" lon="-1.35274">
        <ele>-1</ele>
        <time>2018-10-24T11:10:12Z</time>
      </trkpt>
      <trkpt lat="47.52737" lon="-1.353">
        <ele>-1</ele>
        <time>2018-10-24T11:10:18Z</time>
      </trkpt>
      <trkpt lat="47.52741" lon="-1.3532">
        <ele>-1</ele>
        <time>2018-10-24T11:10:23Z</time>
      </trkpt>
      <trkpt lat="47.52744" lon="-1.35352">
        <ele>-1</ele>
        <time>2018-10-24T11:10:29Z</time>
      </trkpt>
      <trkpt lat="47.52748" lon="-1.3539">
        <ele>-2</ele>
        <time>2018-10-24T11:10:36Z</time>
      </trkpt>
      <trkpt lat="47.5275" lon="-1.35395">
        <ele>-2</ele>
        <time>2018-10-24T11:10:37Z</time>
      </trkpt>
      <trkpt lat="47.52756" lon="-1.35409">
        <ele>-2</ele>
        <time>2018-10-24T11:10:41Z</time>
      </trkpt>
      <trkpt lat="47.52768" lon="-1.35422">
        <ele>-2</ele>
        <time>2018-10-24T11:10:46Z</time>
      </trkpt>
      <trkpt lat="47.52777" lon="-1.35437">
        <ele>-2</ele>
        <time>2018-10-24T11:13:02Z</time>
      </trkpt>
      <trkpt lat="47.52785" lon="-1.35449">
        <ele>-2</ele>
        <time>2018-10-24T11:13:06Z</time>
      </trkpt>
      <trkpt lat="47.52805" lon="-1.35471">
        <ele>-2</ele>
        <time>2018-10-24T11:13:13Z</time>
      </trkpt>
      <trkpt lat="47.52819" lon="-1.35488">
        <ele>-2</ele>
        <time>2018-10-24T11:13:19Z</time>
      </trkpt>
      <trkpt lat="47.52837" lon="-1.35503">
        <ele>-2</ele>
        <time>2018-10-24T11:13:26Z</time>
      </trkpt>
      <trkpt lat="47.52855" lon="-1.35516">
        <ele>-1</ele>
        <time>2018-10-24T11:13:33Z</time>
      </trkpt>
      <trkpt lat="47.52876" lon="-1.35532">
        <ele>-1</ele>
        <time>2018-10-24T11:13:41Z</time>
      </trkpt>
      <trkpt lat="47.52879" lon="-1.35535">
        <ele>-1</ele>
        <time>2018-10-24T11:13:42Z</time>
      </trkpt>
      <trkpt lat="47.52893" lon="-1.35548">
        <ele>-1</ele>
        <time>2018-10-24T11:13:48Z</time>
      </trkpt>
      <trkpt lat="47.52913" lon="-1.35563">
        <ele>38.9</ele>
        <time>2018-10-24T11:13:56Z</time>
      </trkpt>
      <trkpt lat="47.52918" lon="-1.35567">
        <ele>39</ele>
        <time>2018-10-24T11:13:58Z</time>
      </trkpt>
      <trkpt lat="47.52934" lon="-1.35583">
        <ele>1</ele>
        <time>2018-10-24T11:14:05Z</time>
      </trkpt>
      <trkpt lat="47.52939" lon="-1.35588">
        <ele>1</ele>
        <time>2018-10-24T11:14:07Z</time>
      </trkpt>
      <trkpt lat="47.52953" lon="-1.35602">
        <ele>1</ele>
        <time>2018-10-24T11:14:13Z</time>
      </trkpt>
      <trkpt lat="47.52969" lon="-1.35617">
        <ele>2</ele>
        <time>2018-10-24T11:14:20Z</time>
      </trkpt>
      <trkpt lat="47.52984" lon="-1.3563">
        <ele>3</ele>
        <time>2018-10-24T11:14:27Z</time>
      </trkpt>
      <trkpt lat="47.52994" lon="-1.35642">
        <ele>4</ele>
        <time>2018-10-24T11:14:32Z</time>
      </trkpt>
      <trkpt lat="47.52999" lon="-1.35646">
        <ele>5</ele>
        <time>2018-10-24T11:14:34Z</time>
      </trkpt>
      <trkpt lat="47.53006" lon="-1.35652">
        <ele>6</ele>
        <time>2018-10-24T11:14:37Z</time>
      </trkpt>
      <trkpt lat="47.53012" lon="-1.35659">
        <ele>6</ele>
        <time>2018-10-24T11:14:40Z</time>
      </trkpt>
      <trkpt lat="47.53027" lon="-1.35672">
        <ele>6</ele>
        <time>2018-10-24T11:14:46Z</time>
      </trkpt>
      <trkpt lat="47.5304" lon="-1.35684">
        <ele>7</ele>
        <time>2018-10-24T11:14:51Z</time>
      </trkpt>
      <trkpt lat="47.53042" lon="-1.35687">
        <ele>7</ele>
        <time>2018-10-24T11:14:52Z</time>
      </trkpt>
      <trkpt lat="47.5306" lon="-1.35702">
        <ele>7</ele>
        <time>2018-10-24T11:14:59Z</time>
      </trkpt>
      <trkpt lat="47.53079" lon="-1.35721">
        <ele>7</ele>
        <time>2018-10-24T11:15:06Z</time>
      </trkpt>
      <trkpt lat="47.53087" lon="-1.35728">
        <ele>8</ele>
        <time>2018-10-24T11:15:09Z</time>
      </trkpt>
      <trkpt lat="47.53097" lon="-1.35737">
        <ele>8</ele>
        <time>2018-10-24T11:15:13Z</time>
      </trkpt>
      <trkpt lat="47.53106" lon="-1.35747">
        <ele>9</ele>
        <time>2018-10-24T11:15:17Z</time>
      </trkpt>
      <trkpt lat="47.53113" lon="-1.35754">
        <ele>9</ele>
        <time>2018-10-24T11:15:20Z</time>
      </trkpt>
      <trkpt lat="47.53122" lon="-1.35766">
        <ele>10</ele>
        <time>2018-10-24T11:15:25Z</time>
      </trkpt>
      <trkpt lat="47.53124" lon="-1.35768">
        <ele>10</ele>
        <time>2018-10-24T11:15:26Z</time>
      </trkpt>
      <trkpt lat="47.5314" lon="-1.35787">
        <ele>10</ele>
        <time>2018-10-24T11:15:33Z</time>
      </trkpt>
      <trkpt lat="47.53159" lon="-1.3581">
        <ele>11</ele>
        <time>2018-10-24T11:15:41Z</time>
      </trkpt>
      <trkpt lat="47.53163" lon="-1.35816">
        <ele>11</ele>
        <time>2018-10-24T11:15:43Z</time>
      </trkpt>
      <trkpt lat="47.53172" lon="-1.35827">
        <ele>11</ele>
        <time>2018-10-24T11:15:47Z</time>
      </trkpt>
      <trkpt lat="47.53188" lon="-1.3585">
        <ele>12</ele>
        <time>2018-10-24T11:15:54Z</time>
      </trkpt>
      <trkpt lat="47.53192" lon="-1.35856">
        <ele>12</ele>
        <time>2018-10-24T11:15:56Z</time>
      </trkpt>
      <trkpt lat="47.53203" lon="-1.35872">
        <ele>12</ele>
        <time>2018-10-24T11:16:01Z</time>
      </trkpt>
      <trkpt lat="47.53214" lon="-1.35893">
        <ele>13</ele>
        <time>2018-10-24T11:16:07Z</time>
      </trkpt>
      <trkpt lat="47.53216" lon="-1.35896">
        <ele>13</ele>
        <time>2018-10-24T11:16:08Z</time>
      </trkpt>
      <trkpt lat="47.53226" lon="-1.35918">
        <ele>14</ele>
        <time>2018-10-24T11:16:15Z</time>
      </trkpt>
      <trkpt lat="47.53227" lon="-1.35928">
        <ele>14</ele>
        <time>2018-10-24T11:16:18Z</time>
      </trkpt>
      <trkpt lat="47.53225" lon="-1.35939">
        <ele>15</ele>
        <time>2018-10-24T11:21:39Z</time>
      </trkpt>
      <trkpt lat="47.5322" lon="-1.35949">
        <ele>15</ele>
        <time>2018-10-24T11:21:42Z</time>
      </trkpt>
      <trkpt lat="47.53219" lon="-1.35953">
        <ele>15</ele>
        <time>2018-10-24T11:21:43Z</time>
      </trkpt>
      <trkpt lat="47.53211" lon="-1.35975">
        <ele>15</ele>
        <time>2018-10-24T11:21:47Z</time>
      </trkpt>
      <trkpt lat="47.53193" lon="-1.36026">
        <ele>14</ele>
        <time>2018-10-24T11:21:55Z</time>
      </trkpt>
      <trkpt lat="47.53173" lon="-1.36082">
        <ele>14</ele>
        <time>2018-10-24T11:22:03Z</time>
      </trkpt>
      <trkpt lat="47.53159" lon="-1.36124">
        <ele>14</ele>
        <time>2018-10-24T11:22:10Z</time>
      </trkpt>
      <trkpt lat="47.53146" lon="-1.36162">
        <ele>14</ele>
        <time>2018-10-24T11:22:16Z</time>
      </trkpt>
      <trkpt lat="47.53127" lon="-1.36215">
        <ele>14</ele>
        <time>2018-10-24T11:22:24Z</time>
      </trkpt>
      <trkpt lat="47.53112" lon="-1.36259">
        <ele>13</ele>
        <time>2018-10-24T11:22:31Z</time>
      </trkpt>
      <trkpt lat="47.53091" lon="-1.36311">
        <ele>13</ele>
        <time>2018-10-24T11:22:38Z</time>
      </trkpt>
      <trkpt lat="47.53059" lon="-1.3638">
        <ele>14</ele>
        <time>2018-10-24T11:22:47Z</time>
      </trkpt>
      <trkpt lat="47.53056" lon="-1.36388">
        <ele>14</ele>
        <time>2018-10-24T11:22:48Z</time>
      </trkpt>
      <trkpt lat="47.53027" lon="-1.36451">
        <ele>14</ele>
        <time>2018-10-24T11:22:56Z</time>
      </trkpt>
      <trkpt lat="47.53001" lon="-1.36505">
        <ele>15</ele>
        <time>2018-10-24T11:23:03Z</time>
      </trkpt>
      <trkpt lat="47.52998" lon="-1.36511">
        <ele>15</ele>
        <time>2018-10-24T11:23:04Z</time>
      </trkpt>
      <trkpt lat="47.5299" lon="-1.3653">
        <ele>15</ele>
        <time>2018-10-24T11:23:07Z</time>
      </trkpt>
      <trkpt lat="47.52989" lon="-1.36539">
        <ele>15</ele>
        <time>2018-10-24T11:23:09Z</time>
      </trkpt>
      <trkpt lat="47.52992" lon="-1.36543">
        <ele>16</ele>
        <time>2018-10-24T11:25:35Z</time>
      </trkpt>
      <trkpt lat="47.53001" lon="-1.36551">
        <ele>16</ele>
        <time>2018-10-24T11:25:39Z</time>
      </trkpt>
      <trkpt lat="47.53008" lon="-1.36573">
        <ele>16</ele>
        <time>2018-10-24T11:25:44Z</time>
      </trkpt>
      <trkpt lat="47.53012" lon="-1.36623">
        <ele>16</ele>
        <time>2018-10-24T11:25:53Z</time>
      </trkpt>
      <trkpt lat="47.53018" lon="-1.36688">
        <ele>16</ele>
        <time>2018-10-24T11:26:04Z</time>
      </trkpt>
      <trkpt lat="47.53022" lon="-1.36735">
        <ele>16</ele>
        <time>2018-10-24T11:26:12Z</time>
      </trkpt>
      <trkpt lat="47.53028" lon="-1.36791">
        <ele>15</ele>
        <time>2018-10-24T11:26:22Z</time>
      </trkpt>
      <trkpt lat="47.5303" lon="-1.36812">
        <ele>15</ele>
        <time>2018-10-24T11:26:26Z</time>
      </trkpt>
      <trkpt lat="47.53032" lon="-1.36838">
        <ele>15</ele>
        <time>2018-10-24T11:26:31Z</time>
      </trkpt>
      <trkpt lat="47.53034" lon="-1.36854">
        <ele>15</ele>
        <time>2018-10-24T11:26:36Z</time>
      </trkpt>
      <trkpt lat="47.53034" lon="-1.36856">
        <ele>15</ele>
        <time>2018-10-24T11:26:41Z</time>
      </trkpt>
      <trkpt lat="47.53035" lon="-1.36861">
        <ele>15</ele>
        <time>2018-10-24T11:26:43Z</time>
      </trkpt>
      <trkpt lat="47.53039" lon="-1.36885">
        <ele>15</ele>
        <time>2018-10-24T11:26:48Z</time>
      </trkpt>
      <trkpt lat="47.53048" lon="-1.36909">
        <ele>14</ele>
        <time>2018-10-24T11:26:53Z</time>
      </trkpt>
      <trkpt lat="47.53059" lon="-1.3694">
        <ele>13</ele>
        <time>2018-10-24T11:26:59Z</time>
      </trkpt>
      <trkpt lat="47.53072" lon="-1.36976">
        <ele>13</ele>
        <time>2018-10-24T11:27:05Z</time>
      </trkpt>
      <trkpt lat="47.53079" lon="-1.36995">
        <ele>12</ele>
        <time>2018-10-24T11:27:08Z</time>
      </trkpt>
      <trkpt lat="47.5309" lon="-1.3703">
        <ele>12</ele>
        <time>2018-10-24T11:27:13Z</time>
      </trkpt>
      <trkpt lat="47.53097" lon="-1.37059">
        <ele>11</ele>
        <time>2018-10-24T11:27:17Z</time>
      </trkpt>
      <trkpt lat="47.531" lon="-1.37082">
        <ele>11</ele>
        <time>2018-10-24T11:27:20Z</time>
      </trkpt>
      <trkpt lat="47.53104" lon="-1.37117">
        <ele>10</ele>
        <time>2018-10-24T11:27:25Z</time>
      </trkpt>
      <trkpt lat="47.53108" lon="-1.37154">
        <ele>10</ele>
        <time>2018-10-24T11:27:31Z</time>
      </trkpt>
      <trkpt lat="47.53108" lon="-1.37173">
        <ele>9</ele>
        <time>2018-10-24T11:27:34Z</time>
      </trkpt>
      <trkpt lat="47.53111" lon="-1.37233">
        <ele>9</ele>
        <time>2018-10-24T11:27:44Z</time>
      </trkpt>
      <trkpt lat="47.53112" lon="-1.37312">
        <ele>9</ele>
        <time>2018-10-24T11:27:57Z</time>
      </trkpt>
      <trkpt lat="47.53113" lon="-1.37343">
        <ele>9</ele>
        <time>2018-10-24T11:28:02Z</time>
      </trkpt>
      <trkpt lat="47.53113" lon="-1.3739">
        <ele>9</ele>
        <time>2018-10-24T11:28:10Z</time>
      </trkpt>
      <trkpt lat="47.53113" lon="-1.37457">
        <ele>9</ele>
        <time>2018-10-24T11:28:21Z</time>
      </trkpt>
      <trkpt lat="47.53112" lon="-1.37518">
        <ele>8</ele>
        <time>2018-10-24T11:28:31Z</time>
      </trkpt>
      <trkpt lat="47.53111" lon="-1.37572">
        <ele>8</ele>
        <time>2018-10-24T11:28:39Z</time>
      </trkpt>
      <trkpt lat="47.53111" lon="-1.3758">
        <ele>7</ele>
        <time>2018-10-24T11:28:40Z</time>
      </trkpt>
      <trkpt lat="47.5311" lon="-1.37621">
        <ele>6</ele>
        <time>2018-10-24T11:28:45Z</time>
      </trkpt>
      <trkpt lat="47.53109" lon="-1.37648">
        <ele>6</ele>
        <time>2018-10-24T11:28:48Z</time>
      </trkpt>
      <trkpt lat="47.53109" lon="-1.37667">
        <ele>5</ele>
        <time>2018-10-24T11:28:50Z</time>
      </trkpt>
      <trkpt lat="47.53108" lon="-1.37707">
        <ele>4</ele>
        <time>2018-10-24T11:28:54Z</time>
      </trkpt>
      <trkpt lat="47.53106" lon="-1.37747">
        <ele>3</ele>
        <time>2018-10-24T11:28:58Z</time>
      </trkpt>
      <trkpt lat="47.53103" lon="-1.37794">
        <ele>2</ele>
        <time>2018-10-24T11:29:03Z</time>
      </trkpt>
      <trkpt lat="47.53102" lon="-1.37811">
        <ele>2</ele>
        <time>2018-10-24T11:29:05Z</time>
      </trkpt>
      <trkpt lat="47.53098" lon="-1.3786">
        <ele>1</ele>
        <time>2018-10-24T11:29:12Z</time>
      </trkpt>
      <trkpt lat="47.53093" lon="-1.3791">
        <ele>1</ele>
        <time>2018-10-24T11:29:20Z</time>
      </trkpt>
      <trkpt lat="47.5309" lon="-1.37963">
        <ele>1</ele>
        <time>2018-10-24T11:29:28Z</time>
      </trkpt>
      <trkpt lat="47.53091" lon="-1.3797">
        <ele>1</ele>
        <time>2018-10-24T11:29:29Z</time>
      </trkpt>
      <trkpt lat="47.53096" lon="-1.37989">
        <ele>1</ele>
        <time>2018-10-24T11:29:32Z</time>
      </trkpt>
      <trkpt lat="47.53098" lon="-1.37994">
        <ele>1</ele>
        <time>2018-10-24T11:29:33Z</time>
      </trkpt>
      <trkpt lat="47.53101" lon="-1.38">
        <ele>1</ele>
        <time>2018-10-24T11:29:34Z</time>
      </trkpt>
      <trkpt lat="47.53112" lon="-1.38019">
        <ele>38.6</ele>
        <time>2018-10-24T11:29:38Z</time>
      </trkpt>
      <trkpt lat="47.53139" lon="-1.38062">
        <ele>1</ele>
        <time>2018-10-24T11:29:48Z</time>
      </trkpt>
      <trkpt lat="47.53164" lon="-1.38098">
        <ele>1</ele>
        <time>2018-10-24T11:29:57Z</time>
      </trkpt>
      <trkpt lat="47.53192" lon="-1.3813">
        <ele>2</ele>
        <time>2018-10-24T11:30:06Z</time>
      </trkpt>
      <trkpt lat="47.53195" lon="-1.38134">
        <ele>2</ele>
        <time>2018-10-24T11:30:07Z</time>
      </trkpt>
      <trkpt lat="47.53214" lon="-1.3817">
        <ele>2</ele>
        <time>2018-10-24T11:30:15Z</time>
      </trkpt>
      <trkpt lat="47.53223" lon="-1.38212">
        <ele>2</ele>
        <time>2018-10-24T11:30:23Z</time>
      </trkpt>
      <trkpt lat="47.53227" lon="-1.38246">
        <ele>3</ele>
        <time>2018-10-24T11:30:29Z</time>
      </trkpt>
      <trkpt lat="47.53228" lon="-1.38256">
        <ele>3</ele>
        <time>2018-10-24T11:30:31Z</time>
      </trkpt>
      <trkpt lat="47.53232" lon="-1.38295">
        <ele>4</ele>
        <time>2018-10-24T11:30:39Z</time>
      </trkpt>
      <trkpt lat="47.53233" lon="-1.38309">
        <ele>4</ele>
        <time>2018-10-24T11:30:42Z</time>
      </trkpt>
      <trkpt lat="47.53232" lon="-1.38335">
        <ele>5</ele>
        <time>2018-10-24T11:30:47Z</time>
      </trkpt>
      <trkpt lat="47.53232" lon="-1.3834">
        <ele>5</ele>
        <time>2018-10-24T11:30:48Z</time>
      </trkpt>
      <trkpt lat="47.53232" lon="-1.38368">
        <ele>6</ele>
        <time>2018-10-24T11:30:54Z</time>
      </trkpt>
      <trkpt lat="47.53231" lon="-1.38404">
        <ele>7</ele>
        <time>2018-10-24T11:31:01Z</time>
      </trkpt>
      <trkpt lat="47.53231" lon="-1.3841">
        <ele>7</ele>
        <time>2018-10-24T11:31:02Z</time>
      </trkpt>
      <trkpt lat="47.5323" lon="-1.38459">
        <ele>8</ele>
        <time>2018-10-24T11:31:11Z</time>
      </trkpt>
      <trkpt lat="47.53229" lon="-1.38503">
        <ele>8</ele>
        <time>2018-10-24T11:31:19Z</time>
      </trkpt>
      <trkpt lat="47.53229" lon="-1.38508">
        <ele>8</ele>
        <time>2018-10-24T11:31:20Z</time>
      </trkpt>
      <trkpt lat="47.53229" lon="-1.38554">
        <ele>9</ele>
        <time>2018-10-24T11:31:29Z</time>
      </trkpt>
      <trkpt lat="47.5323" lon="-1.38591">
        <ele>9</ele>
        <time>2018-10-24T11:31:36Z</time>
      </trkpt>
      <trkpt lat="47.53232" lon="-1.38617">
        <ele>9</ele>
        <time>2018-10-24T11:31:43Z</time>
      </trkpt>
      <trkpt lat="47.5323" lon="-1.38624">
        <ele>8</ele>
        <time>2018-10-24T11:34:24Z</time>
      </trkpt>
      <trkpt lat="47.53228" lon="-1.38625">
        <ele>8</ele>
        <time>2018-10-24T11:34:25Z</time>
      </trkpt>
      <trkpt lat="47.53219" lon="-1.38622">
        <ele>8</ele>
        <time>2018-10-24T11:34:28Z</time>
      </trkpt>
      <trkpt lat="47.53215" lon="-1.38621">
        <ele>8</ele>
        <time>2018-10-24T11:34:29Z</time>
      </trkpt>
      <trkpt lat="47.53182" lon="-1.38609">
        <ele>9</ele>
        <time>2018-10-24T11:34:39Z</time>
      </trkpt>
      <trkpt lat="47.53168" lon="-1.38605">
        <ele>9</ele>
        <time>2018-10-24T11:34:43Z</time>
      </trkpt>
      <trkpt lat="47.53147" lon="-1.38598">
        <ele>10</ele>
        <time>2018-10-24T11:34:49Z</time>
      </trkpt>
      <trkpt lat="47.53144" lon="-1.38597">
        <ele>10</ele>
        <time>2018-10-24T11:34:50Z</time>
      </trkpt>
      <trkpt lat="47.53129" lon="-1.38591">
        <ele>10</ele>
        <time>2018-10-24T11:34:54Z</time>
      </trkpt>
      <trkpt lat="47.53114" lon="-1.38586">
        <ele>11</ele>
        <time>2018-10-24T11:34:58Z</time>
      </trkpt>
      <trkpt lat="47.53079" lon="-1.38573">
        <ele>12</ele>
        <time>2018-10-24T11:35:08Z</time>
      </trkpt>
      <trkpt lat="47.53076" lon="-1.38572">
        <ele>12</ele>
        <time>2018-10-24T11:35:09Z</time>
      </trkpt>
      <trkpt lat="47.5305" lon="-1.38563">
        <ele>13</ele>
        <time>2018-10-24T11:35:17Z</time>
      </trkpt>
      <trkpt lat="47.53047" lon="-1.38562">
        <ele>13</ele>
        <time>2018-10-24T11:35:18Z</time>
      </trkpt>
      <trkpt lat="47.53022" lon="-1.38553">
        <ele>14</ele>
        <time>2018-10-24T11:35:26Z</time>
      </trkpt>
      <trkpt lat="47.53019" lon="-1.38552">
        <ele>14</ele>
        <time>2018-10-24T11:35:27Z</time>
      </trkpt>
      <trkpt lat="47.52996" lon="-1.38546">
        <ele>14</ele>
        <time>2018-10-24T11:35:35Z</time>
      </trkpt>
      <trkpt lat="47.52994" lon="-1.38556">
        <ele>14</ele>
        <time>2018-10-24T11:35:38Z</time>
      </trkpt>
      <trkpt lat="47.52995" lon="-1.3856">
        <ele>14</ele>
        <time>2018-10-24T11:35:39Z</time>
      </trkpt>
      <trkpt lat="47.52997" lon="-1.38575">
        <ele>15</ele>
        <time>2018-10-24T11:35:43Z</time>
      </trkpt>
      <trkpt lat="47.52997" lon="-1.38587">
        <ele>15</ele>
        <time>2018-10-24T11:35:46Z</time>
      </trkpt>
      <trkpt lat="47.52995" lon="-1.38598">
        <ele>15</ele>
        <time>2018-10-24T11:35:49Z</time>
      </trkpt>
      <trkpt lat="47.5299" lon="-1.38601">
        <ele>15</ele>
        <time>2018-10-24T11:35:51Z</time>
      </trkpt>
      <trkpt lat="47.52981" lon="-1.38606">
        <ele>16</ele>
        <time>2018-10-24T11:35:54Z</time>
      </trkpt>
      <trkpt lat="47.52964" lon="-1.38616">
        <ele>16</ele>
        <time>2018-10-24T11:35:59Z</time>
      </trkpt>
      <trkpt lat="47.52942" lon="-1.38631">
        <ele>16</ele>
        <time>2018-10-24T11:36:06Z</time>
      </trkpt>
      <trkpt lat="47.52926" lon="-1.38642">
        <ele>16</ele>
        <time>2018-10-24T11:36:10Z</time>
      </trkpt>
      <trkpt lat="47.52918" lon="-1.38649">
        <ele>16</ele>
        <time>2018-10-24T11:36:12Z</time>
      </trkpt>
      <trkpt lat="47.52914" lon="-1.38652">
        <ele>15</ele>
        <time>2018-10-24T11:36:13Z</time>
      </trkpt>
      <trkpt lat="47.52904" lon="-1.38664">
        <ele>15</ele>
        <time>2018-10-24T11:36:16Z</time>
      </trkpt>
      <trkpt lat="47.52894" lon="-1.38675">
        <ele>14</ele>
        <time>2018-10-24T11:36:19Z</time>
      </trkpt>
      <trkpt lat="47.52887" lon="-1.38684">
        <ele>14</ele>
        <time>2018-10-24T11:36:21Z</time>
      </trkpt>
      <trkpt lat="47.52869" lon="-1.3871">
        <ele>12</ele>
        <time>2018-10-24T11:36:28Z</time>
      </trkpt>
      <trkpt lat="47.52863" lon="-1.38724">
        <ele>11</ele>
        <time>2018-10-24T11:36:31Z</time>
      </trkpt>
      <trkpt lat="47.52864" lon="-1.38729">
        <ele>11</ele>
        <time>2018-10-24T11:36:32Z</time>
      </trkpt>
      <trkpt lat="47.52866" lon="-1.38734">
        <ele>11</ele>
        <time>2018-10-24T11:36:33Z</time>
      </trkpt>
      <trkpt lat="47.52869" lon="-1.38743">
        <ele>10</ele>
        <time>2018-10-24T11:36:35Z</time>
      </trkpt>
      <trkpt lat="47.5287" lon="-1.38747">
        <ele>10</ele>
        <time>2018-10-24T11:36:36Z</time>
      </trkpt>
      <trkpt lat="47.52874" lon="-1.38754">
        <ele>10</ele>
        <time>2018-10-24T11:36:38Z</time>
      </trkpt>
      <trkpt lat="47.52884" lon="-1.38777">
        <ele>9</ele>
        <time>2018-10-24T11:36:44Z</time>
      </trkpt>
      <trkpt lat="47.52899" lon="-1.38811">
        <ele>10</ele>
        <time>2018-10-24T11:36:53Z</time>
      </trkpt>
      <trkpt lat="47.5291" lon="-1.38841">
        <ele>10</ele>
        <time>2018-10-24T11:37:00Z</time>
      </trkpt>
      <trkpt lat="47.52923" lon="-1.38878">
        <ele>10</ele>
        <time>2018-10-24T11:37:08Z</time>
      </trkpt>
      <trkpt lat="47.52934" lon="-1.38918">
        <ele>10</ele>
        <time>2018-10-24T11:37:17Z</time>
      </trkpt>
      <trkpt lat="47.52938" lon="-1.38933">
        <ele>11</ele>
        <time>2018-10-24T11:37:21Z</time>
      </trkpt>
      <trkpt lat="47.52941" lon="-1.38948">
        <ele>12</ele>
        <time>2018-10-24T11:37:25Z</time>
      </trkpt>
      <trkpt lat="47.52941" lon="-1.38956">
        <ele>12</ele>
        <time>2018-10-24T11:37:27Z</time>
      </trkpt>
      <trkpt lat="47.52941" lon="-1.38977">
        <ele>13</ele>
        <time>2018-10-24T11:37:32Z</time>
      </trkpt>
      <trkpt lat="47.52942" lon="-1.38985">
        <ele>14</ele>
        <time>2018-10-24T11:37:34Z</time>
      </trkpt>
      <trkpt lat="47.52945" lon="-1.39014">
        <ele>14</ele>
        <time>2018-10-24T11:37:41Z</time>
      </trkpt>
      <trkpt lat="47.52945" lon="-1.39018">
        <ele>15</ele>
        <time>2018-10-24T11:37:42Z</time>
      </trkpt>
      <trkpt lat="47.52949" lon="-1.39042">
        <ele>16</ele>
        <time>2018-10-24T11:37:48Z</time>
      </trkpt>
      <trkpt lat="47.5295" lon="-1.39046">
        <ele>16</ele>
        <time>2018-10-24T11:37:49Z</time>
      </trkpt>
      <trkpt lat="47.52952" lon="-1.39075">
        <ele>17</ele>
        <time>2018-10-24T11:37:56Z</time>
      </trkpt>
      <trkpt lat="47.52952" lon="-1.39084">
        <ele>17</ele>
        <time>2018-10-24T11:37:58Z</time>
      </trkpt>
      <trkpt lat="47.52953" lon="-1.39105">
        <ele>17</ele>
        <time>2018-10-24T11:38:03Z</time>
      </trkpt>
      <trkpt lat="47.52954" lon="-1.3912">
        <ele>18</ele>
        <time>2018-10-24T11:38:07Z</time>
      </trkpt>
      <trkpt lat="47.52954" lon="-1.39127">
        <ele>18</ele>
        <time>2018-10-24T11:38:09Z</time>
      </trkpt>
      <trkpt lat="47.52953" lon="-1.3915">
        <ele>19</ele>
        <time>2018-10-24T11:38:15Z</time>
      </trkpt>
      <trkpt lat="47.52952" lon="-1.39167">
        <ele>19</ele>
        <time>2018-10-24T11:38:19Z</time>
      </trkpt>
      <trkpt lat="47.52952" lon="-1.39182">
        <ele>19</ele>
        <time>2018-10-24T11:38:23Z</time>
      </trkpt>
      <trkpt lat="47.5295" lon="-1.3921">
        <ele>19</ele>
        <time>2018-10-24T11:38:30Z</time>
      </trkpt>
      <trkpt lat="47.52947" lon="-1.39238">
        <ele>20</ele>
        <time>2018-10-24T11:38:37Z</time>
      </trkpt>
      <trkpt lat="47.52945" lon="-1.39271">
        <ele>20</ele>
        <time>2018-10-24T11:38:45Z</time>
      </trkpt>
      <trkpt lat="47.52944" lon="-1.393">
        <ele>19</ele>
        <time>2018-10-24T11:38:52Z</time>
      </trkpt>
      <trkpt lat="47.52939" lon="-1.39332">
        <ele>19</ele>
        <time>2018-10-24T11:39:00Z</time>
      </trkpt>
      <trkpt lat="47.52935" lon="-1.39361">
        <ele>18</ele>
        <time>2018-10-24T11:39:08Z</time>
      </trkpt>
      <trkpt lat="47.52933" lon="-1.39378">
        <ele>18</ele>
        <time>2018-10-24T11:39:14Z</time>
      </trkpt>
      <trkpt lat="47.52935" lon="-1.39379">
        <ele>18</ele>
        <time>2018-10-24T11:42:59Z</time>
      </trkpt>
      <trkpt lat="47.52936" lon="-1.3938">
        <ele>18</ele>
        <time>2018-10-24T11:43:00Z</time>
      </trkpt>
      <trkpt lat="47.52947" lon="-1.39383">
        <ele>18</ele>
        <time>2018-10-24T11:43:07Z</time>
      </trkpt>
      <trkpt lat="47.52948" lon="-1.39385">
        <ele>18</ele>
        <time>2018-10-24T11:43:08Z</time>
      </trkpt>
      <trkpt lat="47.52953" lon="-1.39395">
        <ele>18</ele>
        <time>2018-10-24T11:43:11Z</time>
      </trkpt>
      <trkpt lat="47.52964" lon="-1.3942">
        <ele>17</ele>
        <time>2018-10-24T11:43:17Z</time>
      </trkpt>
      <trkpt lat="47.52975" lon="-1.39436">
        <ele>18</ele>
        <time>2018-10-24T11:43:23Z</time>
      </trkpt>
      <trkpt lat="47.52986" lon="-1.39451">
        <ele>18</ele>
        <time>2018-10-24T11:43:28Z</time>
      </trkpt>
      <trkpt lat="47.53001" lon="-1.39471">
        <ele>19</ele>
        <time>2018-10-24T11:43:36Z</time>
      </trkpt>
      <trkpt lat="47.53015" lon="-1.39493">
        <ele>19</ele>
        <time>2018-10-24T11:43:43Z</time>
      </trkpt>
      <trkpt lat="47.53028" lon="-1.39515">
        <ele>19</ele>
        <time>2018-10-24T11:43:50Z</time>
      </trkpt>
      <trkpt lat="47.53038" lon="-1.39533">
        <ele>19</ele>
        <time>2018-10-24T11:43:57Z</time>
      </trkpt>
      <trkpt lat="47.5305" lon="-1.39548">
        <ele>19</ele>
        <time>2018-10-24T11:44:04Z</time>
      </trkpt>
      <trkpt lat="47.53057" lon="-1.39565">
        <ele>20</ele>
        <time>2018-10-24T11:44:10Z</time>
      </trkpt>
      <trkpt lat="47.53054" lon="-1.39586">
        <ele>20</ele>
        <time>2018-10-24T11:44:15Z</time>
      </trkpt>
      <trkpt lat="47.5304" lon="-1.3961">
        <ele>20</ele>
        <time>2018-10-24T11:44:22Z</time>
      </trkpt>
      <trkpt lat="47.53025" lon="-1.39632">
        <ele>20</ele>
        <time>2018-10-24T11:44:29Z</time>
      </trkpt>
      <trkpt lat="47.53011" lon="-1.39654">
        <ele>19</ele>
        <time>2018-10-24T11:44:36Z</time>
      </trkpt>
      <trkpt lat="47.52999" lon="-1.39672">
        <ele>19</ele>
        <time>2018-10-24T11:44:42Z</time>
      </trkpt>
      <trkpt lat="47.52987" lon="-1.39689">
        <ele>20</ele>
        <time>2018-10-24T11:44:47Z</time>
      </trkpt>
      <trkpt lat="47.52976" lon="-1.3971">
        <ele>20</ele>
        <time>2018-10-24T11:44:53Z</time>
      </trkpt>
      <trkpt lat="47.52973" lon="-1.39712">
        <ele>20</ele>
        <time>2018-10-24T11:44:55Z</time>
      </trkpt>
      <trkpt lat="47.52967" lon="-1.3973">
        <ele>20</ele>
        <time>2018-10-24T11:46:37Z</time>
      </trkpt>
      <trkpt lat="47.52962" lon="-1.39751">
        <ele>20</ele>
        <time>2018-10-24T11:46:51Z</time>
      </trkpt>
      <trkpt lat="47.52968" lon="-1.39752">
        <ele>20</ele>
        <time>2018-10-24T11:46:54Z</time>
      </trkpt>
      <trkpt lat="47.52988" lon="-1.39757">
        <ele>20</ele>
        <time>2018-10-24T11:47:01Z</time>
      </trkpt>
      <trkpt lat="47.5299" lon="-1.39761">
        <ele>19</ele>
        <time>2018-10-24T11:47:02Z</time>
      </trkpt>
      <trkpt lat="47.52994" lon="-1.39773">
        <ele>19</ele>
        <time>2018-10-24T11:47:05Z</time>
      </trkpt>
      <trkpt lat="47.52995" lon="-1.39778">
        <ele>19</ele>
        <time>2018-10-24T11:47:06Z</time>
      </trkpt>
      <trkpt lat="47.52998" lon="-1.39789">
        <ele>19</ele>
        <time>2018-10-24T11:47:08Z</time>
      </trkpt>
      <trkpt lat="47.53003" lon="-1.39824">
        <ele>18</ele>
        <time>2018-10-24T11:47:14Z</time>
      </trkpt>
      <trkpt lat="47.53006" lon="-1.39844">
        <ele>18</ele>
        <time>2018-10-24T11:47:17Z</time>
      </trkpt>
      <trkpt lat="47.5301" lon="-1.39871">
        <ele>17</ele>
        <time>2018-10-24T11:47:21Z</time>
      </trkpt>
      <trkpt lat="47.53015" lon="-1.39903">
        <ele>16</ele>
        <time>2018-10-24T11:47:25Z</time>
      </trkpt>
      <trkpt lat="47.53016" lon="-1.39911">
        <ele>16</ele>
        <time>2018-10-24T11:47:26Z</time>
      </trkpt>
      <trkpt lat="47.53019" lon="-1.39926">
        <ele>15</ele>
        <time>2018-10-24T11:47:28Z</time>
      </trkpt>
      <trkpt lat="47.53021" lon="-1.39939">
        <ele>15</ele>
        <time>2018-10-24T11:47:30Z</time>
      </trkpt>
      <trkpt lat="47.53024" lon="-1.39961">
        <ele>14</ele>
        <time>2018-10-24T11:47:34Z</time>
      </trkpt>
      <trkpt lat="47.53029" lon="-1.39989">
        <ele>14</ele>
        <time>2018-10-24T11:47:40Z</time>
      </trkpt>
      <trkpt lat="47.53035" lon="-1.40018">
        <ele>15</ele>
        <time>2018-10-24T11:47:46Z</time>
      </trkpt>
      <trkpt lat="47.5304" lon="-1.40043">
        <ele>16</ele>
        <time>2018-10-24T11:47:52Z</time>
      </trkpt>
      <trkpt lat="47.53041" lon="-1.40047">
        <ele>16</ele>
        <time>2018-10-24T11:47:53Z</time>
      </trkpt>
      <trkpt lat="47.53048" lon="-1.4007">
        <ele>16</ele>
        <time>2018-10-24T11:47:59Z</time>
      </trkpt>
      <trkpt lat="47.53054" lon="-1.40095">
        <ele>17</ele>
        <time>2018-10-24T11:48:05Z</time>
      </trkpt>
      <trkpt lat="47.53055" lon="-1.40099">
        <ele>17</ele>
        <time>2018-10-24T11:48:06Z</time>
      </trkpt>
      <trkpt lat="47.53057" lon="-1.40137">
        <ele>18</ele>
        <time>2018-10-24T11:48:14Z</time>
      </trkpt>
      <trkpt lat="47.53057" lon="-1.40142">
        <ele>18</ele>
        <time>2018-10-24T11:48:15Z</time>
      </trkpt>
      <trkpt lat="47.5306" lon="-1.40161">
        <ele>18</ele>
        <time>2018-10-24T11:48:20Z</time>
      </trkpt>
      <trkpt lat="47.53073" lon="-1.40172">
        <ele>19</ele>
        <time>2018-10-24T11:48:26Z</time>
      </trkpt>
      <trkpt lat="47.53082" lon="-1.40177">
        <ele>19</ele>
        <time>2018-10-24T11:48:30Z</time>
      </trkpt>
      <trkpt lat="47.53094" lon="-1.40185">
        <ele>19</ele>
        <time>2018-10-24T11:48:35Z</time>
      </trkpt>
      <trkpt lat="47.53118" lon="-1.40203">
        <ele>19</ele>
        <time>2018-10-24T11:48:45Z</time>
      </trkpt>
      <trkpt lat="47.53136" lon="-1.40217">
        <ele>19</ele>
        <time>2018-10-24T11:48:53Z</time>
      </trkpt>
      <trkpt lat="47.5315" lon="-1.40228">
        <ele>19</ele>
        <time>2018-10-24T11:48:59Z</time>
      </trkpt>
      <trkpt lat="47.53153" lon="-1.4023">
        <ele>19</ele>
        <time>2018-10-24T11:49:31Z</time>
      </trkpt>
      <trkpt lat="47.53158" lon="-1.40234">
        <ele>19</ele>
        <time>2018-10-24T11:49:33Z</time>
      </trkpt>
      <trkpt lat="47.53177" lon="-1.40245">
        <ele>19</ele>
        <time>2018-10-24T11:49:40Z</time>
      </trkpt>
      <trkpt lat="47.53198" lon="-1.40267">
        <ele>20</ele>
        <time>2018-10-24T11:49:49Z</time>
      </trkpt>
      <trkpt lat="47.53201" lon="-1.40275">
        <ele>19</ele>
        <time>2018-10-24T11:49:52Z</time>
      </trkpt>
      <trkpt lat="47.53199" lon="-1.40279">
        <ele>20</ele>
        <time>2018-10-24T11:49:54Z</time>
      </trkpt>
      <trkpt lat="47.53198" lon="-1.40296">
        <ele>20</ele>
        <time>2018-10-24T11:49:59Z</time>
      </trkpt>
      <trkpt lat="47.53195" lon="-1.40318">
        <ele>20</ele>
        <time>2018-10-24T11:50:05Z</time>
      </trkpt>
      <trkpt lat="47.53188" lon="-1.40344">
        <ele>19</ele>
        <time>2018-10-24T11:50:11Z</time>
      </trkpt>
      <trkpt lat="47.53184" lon="-1.4037">
        <ele>20</ele>
        <time>2018-10-24T11:50:17Z</time>
      </trkpt>
      <trkpt lat="47.53179" lon="-1.40407">
        <ele>20</ele>
        <time>2018-10-24T11:50:25Z</time>
      </trkpt>
      <trkpt lat="47.53169" lon="-1.40447">
        <ele>20</ele>
        <time>2018-10-24T11:50:33Z</time>
      </trkpt>
      <trkpt lat="47.53163" lon="-1.40477">
        <ele>20</ele>
        <time>2018-10-24T11:50:40Z</time>
      </trkpt>
      <trkpt lat="47.53159" lon="-1.40505">
        <ele>19</ele>
        <time>2018-10-24T11:50:46Z</time>
      </trkpt>
      <trkpt lat="47.5315" lon="-1.40538">
        <ele>19</ele>
        <time>2018-10-24T11:50:53Z</time>
      </trkpt>
      <trkpt lat="47.53139" lon="-1.40575">
        <ele>19</ele>
        <time>2018-10-24T11:51:01Z</time>
      </trkpt>
      <trkpt lat="47.53138" lon="-1.40583">
        <ele>19</ele>
        <time>2018-10-24T11:51:03Z</time>
      </trkpt>
      <trkpt lat="47.53135" lon="-1.40595">
        <ele>19</ele>
        <time>2018-10-24T11:51:06Z</time>
      </trkpt>
      <trkpt lat="47.53129" lon="-1.40618">
        <ele>18</ele>
        <time>2018-10-24T11:51:12Z</time>
      </trkpt>
      <trkpt lat="47.53125" lon="-1.40637">
        <ele>18</ele>
        <time>2018-10-24T11:51:17Z</time>
      </trkpt>
      <trkpt lat="47.53129" lon="-1.40654">
        <ele>18</ele>
        <time>2018-10-24T11:51:22Z</time>
      </trkpt>
      <trkpt lat="47.53129" lon="-1.40657">
        <ele>18</ele>
        <time>2018-10-24T11:51:23Z</time>
      </trkpt>
      <trkpt lat="47.53134" lon="-1.40688">
        <ele>19</ele>
        <time>2018-10-24T11:51:31Z</time>
      </trkpt>
      <trkpt lat="47.53139" lon="-1.40721">
        <ele>19</ele>
        <time>2018-10-24T11:51:39Z</time>
      </trkpt>
      <trkpt lat="47.53146" lon="-1.40755">
        <ele>19</ele>
        <time>2018-10-24T11:51:46Z</time>
      </trkpt>
      <trkpt lat="47.5315" lon="-1.40773">
        <ele>20</ele>
        <time>2018-10-24T11:51:51Z</time>
      </trkpt>
      <trkpt lat="47.53152" lon="-1.40782">
        <ele>20</ele>
        <time>2018-10-24T11:51:53Z</time>
      </trkpt>
      <trkpt lat="47.53154" lon="-1.40809">
        <ele>21</ele>
        <time>2018-10-24T11:51:59Z</time>
      </trkpt>
      <trkpt lat="47.53156" lon="-1.40821">
        <ele>21</ele>
        <time>2018-10-24T11:52:02Z</time>
      </trkpt>
      <trkpt lat="47.53156" lon="-1.4083">
        <ele>21</ele>
        <time>2018-10-24T11:52:05Z</time>
      </trkpt>
      <trkpt lat="47.53162" lon="-1.4086">
        <ele>22</ele>
        <time>2018-10-24T11:52:11Z</time>
      </trkpt>
      <trkpt lat="47.53163" lon="-1.40885">
        <ele>22</ele>
        <time>2018-10-24T11:52:16Z</time>
      </trkpt>
      <trkpt lat="47.53164" lon="-1.40888">
        <ele>22</ele>
        <time>2018-10-24T11:52:17Z</time>
      </trkpt>
      <trkpt lat="47.53169" lon="-1.40905">
        <ele>22</ele>
        <time>2018-10-24T11:52:22Z</time>
      </trkpt>
      <trkpt lat="47.53173" lon="-1.40935">
        <ele>23</ele>
        <time>2018-10-24T11:52:29Z</time>
      </trkpt>
      <trkpt lat="47.53175" lon="-1.40944">
        <ele>23</ele>
        <time>2018-10-24T11:52:31Z</time>
      </trkpt>
      <trkpt lat="47.53178" lon="-1.40962">
        <ele>23</ele>
        <time>2018-10-24T11:52:35Z</time>
      </trkpt>
      <trkpt lat="47.53181" lon="-1.40984">
        <ele>24</ele>
        <time>2018-10-24T11:52:40Z</time>
      </trkpt>
      <trkpt lat="47.53185" lon="-1.41006">
        <ele>24</ele>
        <time>2018-10-24T11:52:46Z</time>
      </trkpt>
      <trkpt lat="47.53191" lon="-1.41031">
        <ele>24</ele>
        <time>2018-10-24T11:52:52Z</time>
      </trkpt>
      <trkpt lat="47.53197" lon="-1.4107">
        <ele>25</ele>
        <time>2018-10-24T11:53:00Z</time>
      </trkpt>
      <trkpt lat="47.532" lon="-1.41102">
        <ele>25</ele>
        <time>2018-10-24T11:53:07Z</time>
      </trkpt>
      <trkpt lat="47.532" lon="-1.41105">
        <ele>25</ele>
        <time>2018-10-24T11:53:08Z</time>
      </trkpt>
      <trkpt lat="47.53204" lon="-1.41131">
        <ele>26</ele>
        <time>2018-10-24T11:53:14Z</time>
      </trkpt>
      <trkpt lat="47.53208" lon="-1.41161">
        <ele>26</ele>
        <time>2018-10-24T11:53:21Z</time>
      </trkpt>
      <trkpt lat="47.5321" lon="-1.41176">
        <ele>26</ele>
        <time>2018-10-24T11:53:24Z</time>
      </trkpt>
      <trkpt lat="47.53213" lon="-1.41192">
        <ele>26</ele>
        <time>2018-10-24T11:53:28Z</time>
      </trkpt>
      <trkpt lat="47.53218" lon="-1.41228">
        <ele>27</ele>
        <time>2018-10-24T11:53:37Z</time>
      </trkpt>
      <trkpt lat="47.53219" lon="-1.41237">
        <ele>27</ele>
        <time>2018-10-24T11:53:39Z</time>
      </trkpt>
      <trkpt lat="47.5322" lon="-1.41257">
        <ele>28</ele>
        <time>2018-10-24T11:53:44Z</time>
      </trkpt>
      <trkpt lat="47.53222" lon="-1.41279">
        <ele>28</ele>
        <time>2018-10-24T11:53:51Z</time>
      </trkpt>
      <trkpt lat="47.53217" lon="-1.41325">
        <ele>28</ele>
        <time>2018-10-24T11:55:42Z</time>
      </trkpt>
      <trkpt lat="47.53207" lon="-1.41379">
        <ele>26</ele>
        <time>2018-10-24T12:01:10Z</time>
      </trkpt>
      <trkpt lat="47.53192" lon="-1.41382">
        <ele>26</ele>
        <time>2018-10-24T12:01:21Z</time>
      </trkpt>
      <trkpt lat="47.53189" lon="-1.41384">
        <ele>26</ele>
        <time>2018-10-24T12:01:22Z</time>
      </trkpt>
      <trkpt lat="47.53188" lon="-1.414">
        <ele>25</ele>
        <time>2018-10-24T12:01:27Z</time>
      </trkpt>
      <trkpt lat="47.53189" lon="-1.41407">
        <ele>25</ele>
        <time>2018-10-24T12:01:29Z</time>
      </trkpt>
      <trkpt lat="47.53188" lon="-1.41416">
        <ele>24</ele>
        <time>2018-10-24T12:01:33Z</time>
      </trkpt>
      <trkpt lat="47.53185" lon="-1.41422">
        <ele>24</ele>
        <time>2018-10-24T12:02:11Z</time>
      </trkpt>
      <trkpt lat="47.5318" lon="-1.41427">
        <ele>24</ele>
        <time>2018-10-24T12:02:13Z</time>
      </trkpt>
      <trkpt lat="47.53172" lon="-1.41434">
        <ele>24</ele>
        <time>2018-10-24T12:02:15Z</time>
      </trkpt>
      <trkpt lat="47.53163" lon="-1.41441">
        <ele>24</ele>
        <time>2018-10-24T12:02:17Z</time>
      </trkpt>
      <trkpt lat="47.53148" lon="-1.41454">
        <ele>23</ele>
        <time>2018-10-24T12:02:20Z</time>
      </trkpt>
      <trkpt lat="47.53132" lon="-1.41467">
        <ele>22</ele>
        <time>2018-10-24T12:02:23Z</time>
      </trkpt>
      <trkpt lat="47.53127" lon="-1.4147">
        <ele>22</ele>
        <time>2018-10-24T12:02:24Z</time>
      </trkpt>
      <trkpt lat="47.53113" lon="-1.41481">
        <ele>20</ele>
        <time>2018-10-24T12:02:27Z</time>
      </trkpt>
      <trkpt lat="47.53104" lon="-1.41487">
        <ele>19</ele>
        <time>2018-10-24T12:02:29Z</time>
      </trkpt>
      <trkpt lat="47.531" lon="-1.41491">
        <ele>19</ele>
        <time>2018-10-24T12:02:30Z</time>
      </trkpt>
      <trkpt lat="47.53087" lon="-1.41499">
        <ele>18</ele>
        <time>2018-10-24T12:02:33Z</time>
      </trkpt>
      <trkpt lat="47.5308" lon="-1.41504">
        <ele>17</ele>
        <time>2018-10-24T12:02:35Z</time>
      </trkpt>
      <trkpt lat="47.53075" lon="-1.41511">
        <ele>17</ele>
        <time>2018-10-24T12:02:37Z</time>
      </trkpt>
      <trkpt lat="47.53074" lon="-1.41522">
        <ele>16</ele>
        <time>2018-10-24T12:02:39Z</time>
      </trkpt>
      <trkpt lat="47.53077" lon="-1.41532">
        <ele>15</ele>
        <time>2018-10-24T12:02:41Z</time>
      </trkpt>
      <trkpt lat="47.53079" lon="-1.41536">
        <ele>15</ele>
        <time>2018-10-24T12:02:42Z</time>
      </trkpt>
      <trkpt lat="47.53081" lon="-1.41541">
        <ele>15</ele>
        <time>2018-10-24T12:02:43Z</time>
      </trkpt>
      <trkpt lat="47.53095" lon="-1.41574">
        <ele>15</ele>
        <time>2018-10-24T12:02:50Z</time>
      </trkpt>
      <trkpt lat="47.53108" lon="-1.41612">
        <ele>15</ele>
        <time>2018-10-24T12:02:58Z</time>
      </trkpt>
      <trkpt lat="47.53112" lon="-1.41625">
        <ele>14</ele>
        <time>2018-10-24T12:03:01Z</time>
      </trkpt>
      <trkpt lat="47.53119" lon="-1.41646">
        <ele>14</ele>
        <time>2018-10-24T12:03:05Z</time>
      </trkpt>
      <trkpt lat="47.53128" lon="-1.41678">
        <ele>13</ele>
        <time>2018-10-24T12:03:11Z</time>
      </trkpt>
      <trkpt lat="47.5313" lon="-1.41691">
        <ele>13</ele>
        <time>2018-10-24T12:03:13Z</time>
      </trkpt>
      <trkpt lat="47.53136" lon="-1.41719">
        <ele>13</ele>
        <time>2018-10-24T12:03:19Z</time>
      </trkpt>
      <trkpt lat="47.53137" lon="-1.41724">
        <ele>12</ele>
        <time>2018-10-24T12:03:21Z</time>
      </trkpt>
      <trkpt lat="47.53127" lon="-1.41735">
        <ele>11</ele>
        <time>2018-10-24T12:04:36Z</time>
      </trkpt>
      <trkpt lat="47.53126" lon="-1.41735">
        <ele>11</ele>
        <time>2018-10-24T12:04:37Z</time>
      </trkpt>
      <trkpt lat="47.53117" lon="-1.41733">
        <ele>11</ele>
        <time>2018-10-24T12:04:40Z</time>
      </trkpt>
      <trkpt lat="47.53111" lon="-1.4173">
        <ele>11</ele>
        <time>2018-10-24T12:04:42Z</time>
      </trkpt>
      <trkpt lat="47.53089" lon="-1.41729">
        <ele>11</ele>
        <time>2018-10-24T12:04:47Z</time>
      </trkpt>
      <trkpt lat="47.53085" lon="-1.4173">
        <ele>10</ele>
        <time>2018-10-24T12:04:48Z</time>
      </trkpt>
      <trkpt lat="47.53074" lon="-1.41735">
        <ele>10</ele>
        <time>2018-10-24T12:04:50Z</time>
      </trkpt>
      <trkpt lat="47.53069" lon="-1.41737">
        <ele>10</ele>
        <time>2018-10-24T12:04:51Z</time>
      </trkpt>
      <trkpt lat="47.53053" lon="-1.41742">
        <ele>9</ele>
        <time>2018-10-24T12:04:55Z</time>
      </trkpt>
      <trkpt lat="47.53049" lon="-1.41744">
        <ele>9</ele>
        <time>2018-10-24T12:04:56Z</time>
      </trkpt>
      <trkpt lat="47.53039" lon="-1.41746">
        <ele>8</ele>
        <time>2018-10-24T12:04:58Z</time>
      </trkpt>
      <trkpt lat="47.53034" lon="-1.41747">
        <ele>8</ele>
        <time>2018-10-24T12:04:59Z</time>
      </trkpt>
      <trkpt lat="47.5303" lon="-1.41749">
        <ele>8</ele>
        <time>2018-10-24T12:05:00Z</time>
      </trkpt>
      <trkpt lat="47.53017" lon="-1.41756">
        <ele>7</ele>
        <time>2018-10-24T12:05:03Z</time>
      </trkpt>
      <trkpt lat="47.53003" lon="-1.41765">
        <ele>6</ele>
        <time>2018-10-24T12:05:06Z</time>
      </trkpt>
      <trkpt lat="47.52999" lon="-1.41768">
        <ele>6</ele>
        <time>2018-10-24T12:05:07Z</time>
      </trkpt>
      <trkpt lat="47.52986" lon="-1.41777">
        <ele>4</ele>
        <time>2018-10-24T12:05:10Z</time>
      </trkpt>
      <trkpt lat="47.52978" lon="-1.41783">
        <ele>4</ele>
        <time>2018-10-24T12:05:12Z</time>
      </trkpt>
      <trkpt lat="47.52974" lon="-1.41785">
        <ele>3</ele>
        <time>2018-10-24T12:05:13Z</time>
      </trkpt>
      <trkpt lat="47.52958" lon="-1.41785">
        <ele>2</ele>
        <time>2018-10-24T12:05:17Z</time>
      </trkpt>
      <trkpt lat="47.52941" lon="-1.41773">
        <ele>2</ele>
        <time>2018-10-24T12:05:23Z</time>
      </trkpt>
      <trkpt lat="47.52929" lon="-1.41766">
        <ele>3</ele>
        <time>2018-10-24T12:05:28Z</time>
      </trkpt>
      <trkpt lat="47.52907" lon="-1.41765">
        <ele>4</ele>
        <time>2018-10-24T12:05:35Z</time>
      </trkpt>
      <trkpt lat="47.52898" lon="-1.41763">
        <ele>4</ele>
        <time>2018-10-24T12:05:38Z</time>
      </trkpt>
      <trkpt lat="47.52888" lon="-1.41765">
        <ele>5</ele>
        <time>2018-10-24T12:05:41Z</time>
      </trkpt>
      <trkpt lat="47.52872" lon="-1.4177">
        <ele>5</ele>
        <time>2018-10-24T12:05:48Z</time>
      </trkpt>
      <trkpt lat="47.52869" lon="-1.41779">
        <ele>5</ele>
        <time>2018-10-24T12:05:53Z</time>
      </trkpt>
      <trkpt lat="47.52869" lon="-1.41782">
        <ele>5</ele>
        <time>2018-10-24T12:05:54Z</time>
      </trkpt>
      <trkpt lat="47.52871" lon="-1.41794">
        <ele>4</ele>
        <time>2018-10-24T12:05:58Z</time>
      </trkpt>
      <trkpt lat="47.52871" lon="-1.41798">
        <ele>4</ele>
        <time>2018-10-24T12:05:59Z</time>
      </trkpt>
      <trkpt lat="47.52867" lon="-1.41811">
        <ele>4</ele>
        <time>2018-10-24T12:06:02Z</time>
      </trkpt>
      <trkpt lat="47.52862" lon="-1.41834">
        <ele>4</ele>
        <time>2018-10-24T12:06:07Z</time>
      </trkpt>
      <trkpt lat="47.52863" lon="-1.41843">
        <ele>3</ele>
        <time>2018-10-24T12:06:09Z</time>
      </trkpt>
      <trkpt lat="47.52863" lon="-1.41861">
        <ele>3</ele>
        <time>2018-10-24T12:06:13Z</time>
      </trkpt>
      <trkpt lat="47.52863" lon="-1.4187">
        <ele>2</ele>
        <time>2018-10-24T12:06:15Z</time>
      </trkpt>
      <trkpt lat="47.52865" lon="-1.41881">
        <ele>2</ele>
        <time>2018-10-24T12:06:18Z</time>
      </trkpt>
      <trkpt lat="47.52866" lon="-1.41884">
        <ele>1</ele>
        <time>2018-10-24T12:06:19Z</time>
      </trkpt>
      <trkpt lat="47.52866" lon="-1.41887">
        <ele>1</ele>
        <time>2018-10-24T12:06:20Z</time>
      </trkpt>
      <trkpt lat="47.52868" lon="-1.41892">
        <ele>1</ele>
        <time>2018-10-24T12:06:22Z</time>
      </trkpt>
      <trkpt lat="47.52868" lon="-1.41894">
        <ele>37.5</ele>
        <time>2018-10-24T12:06:23Z</time>
      </trkpt>
      <trkpt lat="47.52868" lon="-1.41898">
        <ele>37.4</ele>
        <time>2018-10-24T12:06:24Z</time>
      </trkpt>
      <trkpt lat="47.52866" lon="-1.41906">
        <ele>37.2</ele>
        <time>2018-10-24T12:06:26Z</time>
      </trkpt>
      <trkpt lat="47.52866" lon="-1.41915">
        <ele>-1</ele>
        <time>2018-10-24T12:06:28Z</time>
      </trkpt>
      <trkpt lat="47.52864" lon="-1.41926">
        <ele>-2</ele>
        <time>2018-10-24T12:06:31Z</time>
      </trkpt>
      <trkpt lat="47.52864" lon="-1.41959">
        <ele>-3</ele>
        <time>2018-10-24T12:08:19Z</time>
      </trkpt>
      <trkpt lat="47.52864" lon="-1.41962">
        <ele>-3</ele>
        <time>2018-10-24T12:08:20Z</time>
      </trkpt>
      <trkpt lat="47.5286" lon="-1.41977">
        <ele>-3</ele>
        <time>2018-10-24T12:08:25Z</time>
      </trkpt>
      <trkpt lat="47.5285" lon="-1.41988">
        <ele>-3</ele>
        <time>2018-10-24T12:08:30Z</time>
      </trkpt>
      <trkpt lat="47.52848" lon="-1.41997">
        <ele>-5</ele>
        <time>2018-10-24T12:08:33Z</time>
      </trkpt>
      <trkpt lat="47.52846" lon="-1.42003">
        <ele>-5</ele>
        <time>2018-10-24T12:08:35Z</time>
      </trkpt>
      <trkpt lat="47.52849" lon="-1.42011">
        <ele>-6</ele>
        <time>2018-10-24T12:08:38Z</time>
      </trkpt>
      <trkpt lat="47.52851" lon="-1.42013">
        <ele>-6</ele>
        <time>2018-10-24T12:08:39Z</time>
      </trkpt>
      <trkpt lat="47.52857" lon="-1.4203">
        <ele>-6</ele>
        <time>2018-10-24T12:08:45Z</time>
      </trkpt>
      <trkpt lat="47.52856" lon="-1.42055">
        <ele>-6</ele>
        <time>2018-10-24T12:08:51Z</time>
      </trkpt>
      <trkpt lat="47.52846" lon="-1.42067">
        <ele>-6</ele>
        <time>2018-10-24T12:08:55Z</time>
      </trkpt>
      <trkpt lat="47.52831" lon="-1.42086">
        <ele>-6</ele>
        <time>2018-10-24T12:09:01Z</time>
      </trkpt>
      <trkpt lat="47.5282" lon="-1.42108">
        <ele>-6</ele>
        <time>2018-10-24T12:09:07Z</time>
      </trkpt>
      <trkpt lat="47.5281" lon="-1.42131">
        <ele>-6</ele>
        <time>2018-10-24T12:09:13Z</time>
      </trkpt>
      <trkpt lat="47.52803" lon="-1.42156">
        <ele>-6</ele>
        <time>2018-10-24T12:09:20Z</time>
      </trkpt>
    </trkseg>
  </trk>
</gpx>